<?xml version="1.0" encoding="utf-8"?>
<gpx xmlns:xsi="http://www.w3.org/2001/XMLSchema-instance" xmlns:xsd="http://www.w3.org/2001/XMLSchema" version="1.1" creator="Shapelink.com" xmlns="http://www.topografix.com/GPX/1/1" xmlns:gpxtpx="http://www.garmin.com/xmlschemas/TrackPointExtension/v1">
  <metadata>
    <name>Walking 4.17 km, 2014-11-23</name>
    <desc></desc>
    <author><name>David Ståhlman</name></author> 
    <time>2014-11-23T14:30:35Z</time>
  </metadata>
  <trk>
    <name>Walking 4.17 km, 2014-11-23</name>
    <trkseg>
      <trkpt lat="60.1138999" lon="19.9775683">
        <ele>7.82788</ele>
        <time>2014-11-23T14:30:35Z</time>
      </trkpt>
      <trkpt lat="60.1139155" lon="19.9776086">
        <ele>8.30859</ele>
        <time>2014-11-23T14:30:39Z</time>
      </trkpt>
      <trkpt lat="60.1139222" lon="19.9776478">
        <ele>7.82788</ele>
        <time>2014-11-23T14:30:40Z</time>
      </trkpt>
      <trkpt lat="60.1139859" lon="19.9776314">
        <ele>7.82788</ele>
        <time>2014-11-23T14:30:46Z</time>
      </trkpt>
      <trkpt lat="60.1140589" lon="19.9774905">
        <ele>11.6732</ele>
        <time>2014-11-23T14:30:53Z</time>
      </trkpt>
      <trkpt lat="60.1141486" lon="19.9772735">
        <ele>13.5958</ele>
        <time>2014-11-23T14:31:03Z</time>
      </trkpt>
      <trkpt lat="60.1142425" lon="19.9769828">
        <ele>13.5958</ele>
        <time>2014-11-23T14:31:15Z</time>
      </trkpt>
      <trkpt lat="60.1142205" lon="19.9767943">
        <ele>11.1925</ele>
        <time>2014-11-23T14:31:22Z</time>
      </trkpt>
      <trkpt lat="60.1141834" lon="19.9766032">
        <ele>9.75061</ele>
        <time>2014-11-23T14:31:29Z</time>
      </trkpt>
      <trkpt lat="60.1141306" lon="19.9764069">
        <ele>8.78918</ele>
        <time>2014-11-23T14:31:37Z</time>
      </trkpt>
      <trkpt lat="60.1140738" lon="19.976195">
        <ele>6.38586</ele>
        <time>2014-11-23T14:31:46Z</time>
      </trkpt>
      <trkpt lat="60.1140942" lon="19.9760868">
        <ele>6.86646</ele>
        <time>2014-11-23T14:31:50Z</time>
      </trkpt>
      <trkpt lat="60.1141822" lon="19.9759054">
        <ele>8.30859</ele>
        <time>2014-11-23T14:31:59Z</time>
      </trkpt>
      <trkpt lat="60.1142225" lon="19.9757993">
        <ele>9.75061</ele>
        <time>2014-11-23T14:32:04Z</time>
      </trkpt>
      <trkpt lat="60.1142775" lon="19.9756495">
        <ele>11.1925</ele>
        <time>2014-11-23T14:32:11Z</time>
      </trkpt>
      <trkpt lat="60.1143572" lon="19.9754791">
        <ele>12.1538</ele>
        <time>2014-11-23T14:32:19Z</time>
      </trkpt>
      <trkpt lat="60.1144113" lon="19.9753833">
        <ele>13.1151</ele>
        <time>2014-11-23T14:32:24Z</time>
      </trkpt>
      <trkpt lat="60.1145054" lon="19.9752051">
        <ele>14.557</ele>
        <time>2014-11-23T14:32:33Z</time>
      </trkpt>
      <trkpt lat="60.1146348" lon="19.9749827">
        <ele>14.557</ele>
        <time>2014-11-23T14:32:45Z</time>
      </trkpt>
      <trkpt lat="60.1147299" lon="19.9747946">
        <ele>14.557</ele>
        <time>2014-11-23T14:32:54Z</time>
      </trkpt>
      <trkpt lat="60.1147982" lon="19.9746436">
        <ele>14.0764</ele>
        <time>2014-11-23T14:33:01Z</time>
      </trkpt>
      <trkpt lat="60.1148638" lon="19.9744621">
        <ele>14.0764</ele>
        <time>2014-11-23T14:33:09Z</time>
      </trkpt>
      <trkpt lat="60.1149405" lon="19.9742213">
        <ele>13.5958</ele>
        <time>2014-11-23T14:33:19Z</time>
      </trkpt>
      <trkpt lat="60.1150018" lon="19.9739856">
        <ele>13.5958</ele>
        <time>2014-11-23T14:33:28Z</time>
      </trkpt>
      <trkpt lat="60.1150816" lon="19.9738583">
        <ele>14.557</ele>
        <time>2014-11-23T14:33:35Z</time>
      </trkpt>
      <trkpt lat="60.1151722" lon="19.973786">
        <ele>15.5184</ele>
        <time>2014-11-23T14:33:42Z</time>
      </trkpt>
      <trkpt lat="60.1152892" lon="19.973749">
        <ele>15.5184</ele>
        <time>2014-11-23T14:33:51Z</time>
      </trkpt>
      <trkpt lat="60.115299" lon="19.9736572">
        <ele>15.0377</ele>
        <time>2014-11-23T14:33:55Z</time>
      </trkpt>
      <trkpt lat="60.1152911" lon="19.9733795">
        <ele>11.1925</ele>
        <time>2014-11-23T14:34:05Z</time>
      </trkpt>
      <trkpt lat="60.1152935" lon="19.9733226">
        <ele>10.7118</ele>
        <time>2014-11-23T14:34:07Z</time>
      </trkpt>
      <trkpt lat="60.1152958" lon="19.9730978">
        <ele>7.82788</ele>
        <time>2014-11-23T14:34:15Z</time>
      </trkpt>
      <trkpt lat="60.1152934" lon="19.9729099">
        <ele>5.90527</ele>
        <time>2014-11-23T14:34:22Z</time>
      </trkpt>
      <trkpt lat="60.1152587" lon="19.9726777">
        <ele>4.46326</ele>
        <time>2014-11-23T14:34:31Z</time>
      </trkpt>
      <trkpt lat="60.1152521" lon="19.9726553">
        <ele>4.46326</ele>
        <time>2014-11-23T14:34:32Z</time>
      </trkpt>
      <trkpt lat="60.1152114" lon="19.9725228">
        <ele>3.98267</ele>
        <time>2014-11-23T14:34:38Z</time>
      </trkpt>
      <trkpt lat="60.1151551" lon="19.9723995">
        <ele>3.98267</ele>
        <time>2014-11-23T14:34:42Z</time>
      </trkpt>
      <trkpt lat="60.1151046" lon="19.972318">
        <ele>3.02124</ele>
        <time>2014-11-23T14:34:46Z</time>
      </trkpt>
      <trkpt lat="60.1150852" lon="19.9722755">
        <ele>2.54065</ele>
        <time>2014-11-23T14:34:48Z</time>
      </trkpt>
      <trkpt lat="60.115041" lon="19.9722519">
        <ele>2.06006</ele>
        <time>2014-11-23T14:34:52Z</time>
      </trkpt>
      <trkpt lat="60.1150425" lon="19.9721445">
        <ele>1.57935</ele>
        <time>2014-11-23T14:34:56Z</time>
      </trkpt>
      <trkpt lat="60.1151261" lon="19.9720033">
        <ele>1.09863</ele>
        <time>2014-11-23T14:35:03Z</time>
      </trkpt>
      <trkpt lat="60.1151966" lon="19.9718753">
        <ele>0</ele>
        <time>2014-11-23T14:35:09Z</time>
      </trkpt>
      <trkpt lat="60.1152285" lon="19.9718226">
        <ele>0</ele>
        <time>2014-11-23T14:35:12Z</time>
      </trkpt>
      <trkpt lat="60.1152955" lon="19.9717547">
        <ele>0</ele>
        <time>2014-11-23T14:35:17Z</time>
      </trkpt>
      <trkpt lat="60.1153724" lon="19.9716474">
        <ele>0</ele>
        <time>2014-11-23T14:35:24Z</time>
      </trkpt>
      <trkpt lat="60.1154622" lon="19.9714889">
        <ele>0</ele>
        <time>2014-11-23T14:35:33Z</time>
      </trkpt>
      <trkpt lat="60.115527" lon="19.9713665">
        <ele>0</ele>
        <time>2014-11-23T14:35:39Z</time>
      </trkpt>
      <trkpt lat="60.1156309" lon="19.9711921">
        <ele>0</ele>
        <time>2014-11-23T14:35:49Z</time>
      </trkpt>
      <trkpt lat="60.1157408" lon="19.9710567">
        <ele>0</ele>
        <time>2014-11-23T14:35:58Z</time>
      </trkpt>
      <trkpt lat="60.1158688" lon="19.9708487">
        <ele>0</ele>
        <time>2014-11-23T14:36:09Z</time>
      </trkpt>
      <trkpt lat="60.1159383" lon="19.970717">
        <ele>0</ele>
        <time>2014-11-23T14:36:17Z</time>
      </trkpt>
      <trkpt lat="60.1159498" lon="19.97069">
        <ele>0</ele>
        <time>2014-11-23T14:36:19Z</time>
      </trkpt>
      <trkpt lat="60.1160027" lon="19.9706295">
        <ele>0</ele>
        <time>2014-11-23T14:36:24Z</time>
      </trkpt>
      <trkpt lat="60.1160699" lon="19.9705802">
        <ele>0</ele>
        <time>2014-11-23T14:36:30Z</time>
      </trkpt>
      <trkpt lat="60.1161264" lon="19.9705264">
        <ele>0</ele>
        <time>2014-11-23T14:36:37Z</time>
      </trkpt>
      <trkpt lat="60.1161678" lon="19.9705135">
        <ele>0</ele>
        <time>2014-11-23T14:36:41Z</time>
      </trkpt>
      <trkpt lat="60.1161792" lon="19.9704441">
        <ele>0</ele>
        <time>2014-11-23T14:36:49Z</time>
      </trkpt>
      <trkpt lat="60.1161787" lon="19.9704202">
        <ele>0</ele>
        <time>2014-11-23T14:36:54Z</time>
      </trkpt>
      <trkpt lat="60.1161945" lon="19.9703714">
        <ele>0</ele>
        <time>2014-11-23T14:37:08Z</time>
      </trkpt>
      <trkpt lat="60.1162122" lon="19.9702927">
        <ele>0</ele>
        <time>2014-11-23T14:37:13Z</time>
      </trkpt>
      <trkpt lat="60.1162144" lon="19.9702493">
        <ele>0</ele>
        <time>2014-11-23T14:37:15Z</time>
      </trkpt>
      <trkpt lat="60.1162434" lon="19.9701817">
        <ele>0</ele>
        <time>2014-11-23T14:37:19Z</time>
      </trkpt>
      <trkpt lat="60.1163147" lon="19.970117">
        <ele>0</ele>
        <time>2014-11-23T14:37:25Z</time>
      </trkpt>
      <trkpt lat="60.116393" lon="19.9700655">
        <ele>0</ele>
        <time>2014-11-23T14:37:32Z</time>
      </trkpt>
      <trkpt lat="60.1164194" lon="19.970012">
        <ele>0</ele>
        <time>2014-11-23T14:37:37Z</time>
      </trkpt>
      <trkpt lat="60.1164646" lon="19.9699835">
        <ele>0</ele>
        <time>2014-11-23T14:37:44Z</time>
      </trkpt>
      <trkpt lat="60.1165072" lon="19.969954">
        <ele>0</ele>
        <time>2014-11-23T14:37:49Z</time>
      </trkpt>
      <trkpt lat="60.1165768" lon="19.9698839">
        <ele>0</ele>
        <time>2014-11-23T14:37:56Z</time>
      </trkpt>
      <trkpt lat="60.1167022" lon="19.9698308">
        <ele>0</ele>
        <time>2014-11-23T14:38:04Z</time>
      </trkpt>
      <trkpt lat="60.1167152" lon="19.9698229">
        <ele>0</ele>
        <time>2014-11-23T14:38:05Z</time>
      </trkpt>
      <trkpt lat="60.1168267" lon="19.9697462">
        <ele>0</ele>
        <time>2014-11-23T14:38:14Z</time>
      </trkpt>
      <trkpt lat="60.1169029" lon="19.9697494">
        <ele>0</ele>
        <time>2014-11-23T14:38:20Z</time>
      </trkpt>
      <trkpt lat="60.1170048" lon="19.9697282">
        <ele>0</ele>
        <time>2014-11-23T14:38:27Z</time>
      </trkpt>
      <trkpt lat="60.1171378" lon="19.9696944">
        <ele>0</ele>
        <time>2014-11-23T14:38:36Z</time>
      </trkpt>
      <trkpt lat="60.1172704" lon="19.9696437">
        <ele>0.137451</ele>
        <time>2014-11-23T14:38:46Z</time>
      </trkpt>
      <trkpt lat="60.1173661" lon="19.9695644">
        <ele>0.137451</ele>
        <time>2014-11-23T14:38:54Z</time>
      </trkpt>
      <trkpt lat="60.1174462" lon="19.9695111">
        <ele>1.57935</ele>
        <time>2014-11-23T14:39:00Z</time>
      </trkpt>
      <trkpt lat="60.1175201" lon="19.9694443">
        <ele>2.06006</ele>
        <time>2014-11-23T14:39:06Z</time>
      </trkpt>
      <trkpt lat="60.11763" lon="19.9693479">
        <ele>0</ele>
        <time>2014-11-23T14:39:15Z</time>
      </trkpt>
      <trkpt lat="60.1176538" lon="19.9693307">
        <ele>0</ele>
        <time>2014-11-23T14:39:18Z</time>
      </trkpt>
      <trkpt lat="60.1177109" lon="19.9693204">
        <ele>0</ele>
        <time>2014-11-23T14:39:24Z</time>
      </trkpt>
      <trkpt lat="60.1178147" lon="19.9693686">
        <ele>0</ele>
        <time>2014-11-23T14:39:32Z</time>
      </trkpt>
      <trkpt lat="60.1179026" lon="19.9693784">
        <ele>0</ele>
        <time>2014-11-23T14:39:39Z</time>
      </trkpt>
      <trkpt lat="60.1180218" lon="19.9694121">
        <ele>0</ele>
        <time>2014-11-23T14:39:47Z</time>
      </trkpt>
      <trkpt lat="60.1181409" lon="19.9694882">
        <ele>0</ele>
        <time>2014-11-23T14:39:55Z</time>
      </trkpt>
      <trkpt lat="60.1181694" lon="19.969524">
        <ele>0</ele>
        <time>2014-11-23T14:39:58Z</time>
      </trkpt>
      <trkpt lat="60.1182146" lon="19.9695898">
        <ele>0</ele>
        <time>2014-11-23T14:40:02Z</time>
      </trkpt>
      <trkpt lat="60.1182767" lon="19.9697577">
        <ele>0</ele>
        <time>2014-11-23T14:40:11Z</time>
      </trkpt>
      <trkpt lat="60.1183594" lon="19.9698391">
        <ele>0</ele>
        <time>2014-11-23T14:40:16Z</time>
      </trkpt>
      <trkpt lat="60.1184925" lon="19.9699272">
        <ele>0.137451</ele>
        <time>2014-11-23T14:40:24Z</time>
      </trkpt>
      <trkpt lat="60.1185916" lon="19.9699109">
        <ele>0.137451</ele>
        <time>2014-11-23T14:40:31Z</time>
      </trkpt>
      <trkpt lat="60.1186784" lon="19.9698805">
        <ele>0</ele>
        <time>2014-11-23T14:40:37Z</time>
      </trkpt>
      <trkpt lat="60.1187579" lon="19.9698829">
        <ele>0</ele>
        <time>2014-11-23T14:40:43Z</time>
      </trkpt>
      <trkpt lat="60.1188693" lon="19.9698855">
        <ele>0</ele>
        <time>2014-11-23T14:40:50Z</time>
      </trkpt>
      <trkpt lat="60.1188796" lon="19.9698829">
        <ele>0</ele>
        <time>2014-11-23T14:40:51Z</time>
      </trkpt>
      <trkpt lat="60.118977" lon="19.9699271">
        <ele>0</ele>
        <time>2014-11-23T14:40:58Z</time>
      </trkpt>
      <trkpt lat="60.1189899" lon="19.9699368">
        <ele>0</ele>
        <time>2014-11-23T14:40:59Z</time>
      </trkpt>
      <trkpt lat="60.1190718" lon="19.9700114">
        <ele>0</ele>
        <time>2014-11-23T14:41:06Z</time>
      </trkpt>
      <trkpt lat="60.1191635" lon="19.9700959">
        <ele>0</ele>
        <time>2014-11-23T14:41:14Z</time>
      </trkpt>
      <trkpt lat="60.1192676" lon="19.9701579">
        <ele>0</ele>
        <time>2014-11-23T14:41:20Z</time>
      </trkpt>
      <trkpt lat="60.1192887" lon="19.9701657">
        <ele>0</ele>
        <time>2014-11-23T14:41:21Z</time>
      </trkpt>
      <trkpt lat="60.1194629" lon="19.9702774">
        <ele>0</ele>
        <time>2014-11-23T14:41:32Z</time>
      </trkpt>
      <trkpt lat="60.1195938" lon="19.9703726">
        <ele>0</ele>
        <time>2014-11-23T14:41:41Z</time>
      </trkpt>
      <trkpt lat="60.1197522" lon="19.9704631">
        <ele>0</ele>
        <time>2014-11-23T14:41:51Z</time>
      </trkpt>
      <trkpt lat="60.119941" lon="19.9705782">
        <ele>0</ele>
        <time>2014-11-23T14:42:04Z</time>
      </trkpt>
      <trkpt lat="60.1200171" lon="19.9706341">
        <ele>0</ele>
        <time>2014-11-23T14:42:10Z</time>
      </trkpt>
      <trkpt lat="60.1200949" lon="19.9706964">
        <ele>0</ele>
        <time>2014-11-23T14:42:16Z</time>
      </trkpt>
      <trkpt lat="60.1201843" lon="19.9707823">
        <ele>0</ele>
        <time>2014-11-23T14:42:22Z</time>
      </trkpt>
      <trkpt lat="60.1202576" lon="19.9708788">
        <ele>0</ele>
        <time>2014-11-23T14:42:28Z</time>
      </trkpt>
      <trkpt lat="60.1203228" lon="19.9709894">
        <ele>0</ele>
        <time>2014-11-23T14:42:34Z</time>
      </trkpt>
      <trkpt lat="60.1203828" lon="19.971081">
        <ele>0</ele>
        <time>2014-11-23T14:42:40Z</time>
      </trkpt>
      <trkpt lat="60.120442" lon="19.9711526">
        <ele>0</ele>
        <time>2014-11-23T14:42:45Z</time>
      </trkpt>
      <trkpt lat="60.120501" lon="19.9712457">
        <ele>0</ele>
        <time>2014-11-23T14:42:50Z</time>
      </trkpt>
      <trkpt lat="60.1206398" lon="19.9714464">
        <ele>0</ele>
        <time>2014-11-23T14:43:01Z</time>
      </trkpt>
      <trkpt lat="60.12072" lon="19.9715638">
        <ele>0</ele>
        <time>2014-11-23T14:43:08Z</time>
      </trkpt>
      <trkpt lat="60.1208029" lon="19.9717115">
        <ele>0</ele>
        <time>2014-11-23T14:43:16Z</time>
      </trkpt>
      <trkpt lat="60.1208579" lon="19.9718405">
        <ele>0</ele>
        <time>2014-11-23T14:43:22Z</time>
      </trkpt>
      <trkpt lat="60.1209174" lon="19.9720199">
        <ele>0</ele>
        <time>2014-11-23T14:43:30Z</time>
      </trkpt>
      <trkpt lat="60.1209252" lon="19.9720378">
        <ele>0</ele>
        <time>2014-11-23T14:43:31Z</time>
      </trkpt>
      <trkpt lat="60.1209986" lon="19.9721031">
        <ele>0</ele>
        <time>2014-11-23T14:43:36Z</time>
      </trkpt>
      <trkpt lat="60.1210091" lon="19.9721467">
        <ele>0</ele>
        <time>2014-11-23T14:44:14Z</time>
      </trkpt>
      <trkpt lat="60.1209214" lon="19.9719702">
        <ele>0</ele>
        <time>2014-11-23T14:44:24Z</time>
      </trkpt>
      <trkpt lat="60.1208867" lon="19.9718743">
        <ele>0</ele>
        <time>2014-11-23T14:44:29Z</time>
      </trkpt>
      <trkpt lat="60.1208827" lon="19.9718464">
        <ele>0</ele>
        <time>2014-11-23T14:44:37Z</time>
      </trkpt>
      <trkpt lat="60.1208927" lon="19.9719044">
        <ele>0</ele>
        <time>2014-11-23T14:44:49Z</time>
      </trkpt>
      <trkpt lat="60.1209547" lon="19.9720918">
        <ele>0</ele>
        <time>2014-11-23T14:44:59Z</time>
      </trkpt>
      <trkpt lat="60.1210019" lon="19.9721258">
        <ele>0</ele>
        <time>2014-11-23T14:45:06Z</time>
      </trkpt>
      <trkpt lat="60.1210801" lon="19.9722649">
        <ele>0</ele>
        <time>2014-11-23T14:45:16Z</time>
      </trkpt>
      <trkpt lat="60.1210794" lon="19.9722595">
        <ele>0</ele>
        <time>2014-11-23T14:45:21Z</time>
      </trkpt>
      <trkpt lat="60.121019" lon="19.972246">
        <ele>0</ele>
        <time>2014-11-23T14:45:28Z</time>
      </trkpt>
      <trkpt lat="60.1209927" lon="19.9723125">
        <ele>0</ele>
        <time>2014-11-23T14:45:34Z</time>
      </trkpt>
      <trkpt lat="60.1210097" lon="19.9724094">
        <ele>0</ele>
        <time>2014-11-23T14:45:39Z</time>
        <extensions><gpxtpx:TrackPointExtension><gpxtpx:hr>72</gpxtpx:hr></gpxtpx:TrackPointExtension></extensions>
      </trkpt>
      <trkpt lat="60.1210286" lon="19.9724501">
        <ele>0</ele>
        <time>2014-11-23T14:45:42Z</time>
        <extensions><gpxtpx:TrackPointExtension><gpxtpx:hr>72</gpxtpx:hr></gpxtpx:TrackPointExtension></extensions>
      </trkpt>
      <trkpt lat="60.121078" lon="19.9724922">
        <ele>0</ele>
        <time>2014-11-23T14:45:46Z</time>
        <extensions><gpxtpx:TrackPointExtension><gpxtpx:hr>77</gpxtpx:hr></gpxtpx:TrackPointExtension></extensions>
      </trkpt>
      <trkpt lat="60.1210936" lon="19.9725048">
        <ele>0</ele>
        <time>2014-11-23T14:45:47Z</time>
        <extensions><gpxtpx:TrackPointExtension><gpxtpx:hr>77</gpxtpx:hr></gpxtpx:TrackPointExtension></extensions>
      </trkpt>
      <trkpt lat="60.1211328" lon="19.9725922">
        <ele>0</ele>
        <time>2014-11-23T14:45:52Z</time>
        <extensions><gpxtpx:TrackPointExtension><gpxtpx:hr>75</gpxtpx:hr></gpxtpx:TrackPointExtension></extensions>
      </trkpt>
      <trkpt lat="60.12117" lon="19.9727103">
        <ele>0</ele>
        <time>2014-11-23T14:45:58Z</time>
        <extensions><gpxtpx:TrackPointExtension><gpxtpx:hr>72</gpxtpx:hr></gpxtpx:TrackPointExtension></extensions>
      </trkpt>
      <trkpt lat="60.1212446" lon="19.9728212">
        <ele>0.137451</ele>
        <time>2014-11-23T14:46:05Z</time>
        <extensions><gpxtpx:TrackPointExtension><gpxtpx:hr>72</gpxtpx:hr></gpxtpx:TrackPointExtension></extensions>
      </trkpt>
      <trkpt lat="60.1212672" lon="19.9729212">
        <ele>0</ele>
        <time>2014-11-23T14:46:11Z</time>
      </trkpt>
      <trkpt lat="60.1212596" lon="19.9730298">
        <ele>0</ele>
        <time>2014-11-23T14:46:18Z</time>
      </trkpt>
      <trkpt lat="60.1212638" lon="19.9730784">
        <ele>0</ele>
        <time>2014-11-23T14:46:21Z</time>
      </trkpt>
      <trkpt lat="60.1212748" lon="19.9731494">
        <ele>0</ele>
        <time>2014-11-23T14:46:26Z</time>
        <extensions><gpxtpx:TrackPointExtension><gpxtpx:hr>72</gpxtpx:hr></gpxtpx:TrackPointExtension></extensions>
      </trkpt>
      <trkpt lat="60.1212939" lon="19.9732226">
        <ele>0</ele>
        <time>2014-11-23T14:46:33Z</time>
        <extensions><gpxtpx:TrackPointExtension><gpxtpx:hr>72</gpxtpx:hr></gpxtpx:TrackPointExtension></extensions>
      </trkpt>
      <trkpt lat="60.1213085" lon="19.9733404">
        <ele>0</ele>
        <time>2014-11-23T14:46:40Z</time>
        <extensions><gpxtpx:TrackPointExtension><gpxtpx:hr>72</gpxtpx:hr></gpxtpx:TrackPointExtension></extensions>
      </trkpt>
      <trkpt lat="60.1213127" lon="19.9735174">
        <ele>0</ele>
        <time>2014-11-23T14:46:48Z</time>
      </trkpt>
      <trkpt lat="60.121311" lon="19.9735464">
        <ele>0</ele>
        <time>2014-11-23T14:46:49Z</time>
      </trkpt>
      <trkpt lat="60.1213045" lon="19.9736573">
        <ele>0</ele>
        <time>2014-11-23T14:46:53Z</time>
        <extensions><gpxtpx:TrackPointExtension><gpxtpx:hr>72</gpxtpx:hr></gpxtpx:TrackPointExtension></extensions>
      </trkpt>
      <trkpt lat="60.1213148" lon="19.9737749">
        <ele>0.137451</ele>
        <time>2014-11-23T14:46:59Z</time>
        <extensions><gpxtpx:TrackPointExtension><gpxtpx:hr>72</gpxtpx:hr></gpxtpx:TrackPointExtension></extensions>
      </trkpt>
      <trkpt lat="60.1213179" lon="19.9738316">
        <ele>2.54065</ele>
        <time>2014-11-23T14:47:02Z</time>
        <extensions><gpxtpx:TrackPointExtension><gpxtpx:hr>72</gpxtpx:hr></gpxtpx:TrackPointExtension></extensions>
      </trkpt>
      <trkpt lat="60.1213359" lon="19.9739373">
        <ele>5.42456</ele>
        <time>2014-11-23T14:47:07Z</time>
        <extensions><gpxtpx:TrackPointExtension><gpxtpx:hr>72</gpxtpx:hr></gpxtpx:TrackPointExtension></extensions>
      </trkpt>
      <trkpt lat="60.1213333" lon="19.9739997">
        <ele>5.90527</ele>
        <time>2014-11-23T14:47:09Z</time>
        <extensions><gpxtpx:TrackPointExtension><gpxtpx:hr>84</gpxtpx:hr></gpxtpx:TrackPointExtension></extensions>
      </trkpt>
      <trkpt lat="60.1213317" lon="19.9740243">
        <ele>5.90527</ele>
        <time>2014-11-23T14:47:10Z</time>
        <extensions><gpxtpx:TrackPointExtension><gpxtpx:hr>84</gpxtpx:hr></gpxtpx:TrackPointExtension></extensions>
      </trkpt>
      <trkpt lat="60.121329" lon="19.9740748">
        <ele>6.38586</ele>
        <time>2014-11-23T14:47:12Z</time>
        <extensions><gpxtpx:TrackPointExtension><gpxtpx:hr>84</gpxtpx:hr></gpxtpx:TrackPointExtension></extensions>
      </trkpt>
      <trkpt lat="60.1213229" lon="19.9742031">
        <ele>3.98267</ele>
        <time>2014-11-23T14:47:17Z</time>
        <extensions><gpxtpx:TrackPointExtension><gpxtpx:hr>84</gpxtpx:hr></gpxtpx:TrackPointExtension></extensions>
      </trkpt>
      <trkpt lat="60.1213428" lon="19.9744233">
        <ele>6.86646</ele>
        <time>2014-11-23T14:47:24Z</time>
        <extensions><gpxtpx:TrackPointExtension><gpxtpx:hr>84</gpxtpx:hr></gpxtpx:TrackPointExtension></extensions>
      </trkpt>
      <trkpt lat="60.1213542" lon="19.9745021">
        <ele>7.34717</ele>
        <time>2014-11-23T14:47:27Z</time>
        <extensions><gpxtpx:TrackPointExtension><gpxtpx:hr>84</gpxtpx:hr></gpxtpx:TrackPointExtension></extensions>
      </trkpt>
      <trkpt lat="60.1213624" lon="19.9745726">
        <ele>7.34717</ele>
        <time>2014-11-23T14:47:30Z</time>
        <extensions><gpxtpx:TrackPointExtension><gpxtpx:hr>76</gpxtpx:hr></gpxtpx:TrackPointExtension></extensions>
      </trkpt>
      <trkpt lat="60.1213881" lon="19.9746659">
        <ele>6.38586</ele>
        <time>2014-11-23T14:47:35Z</time>
        <extensions><gpxtpx:TrackPointExtension><gpxtpx:hr>76</gpxtpx:hr></gpxtpx:TrackPointExtension></extensions>
      </trkpt>
      <trkpt lat="60.1213974" lon="19.9746969">
        <ele>5.90527</ele>
        <time>2014-11-23T14:47:37Z</time>
        <extensions><gpxtpx:TrackPointExtension><gpxtpx:hr>70</gpxtpx:hr></gpxtpx:TrackPointExtension></extensions>
      </trkpt>
      <trkpt lat="60.1214016" lon="19.9747136">
        <ele>5.42456</ele>
        <time>2014-11-23T14:47:38Z</time>
        <extensions><gpxtpx:TrackPointExtension><gpxtpx:hr>70</gpxtpx:hr></gpxtpx:TrackPointExtension></extensions>
      </trkpt>
      <trkpt lat="60.1214575" lon="19.9748088">
        <ele>2.06006</ele>
        <time>2014-11-23T14:47:44Z</time>
        <extensions><gpxtpx:TrackPointExtension><gpxtpx:hr>70</gpxtpx:hr></gpxtpx:TrackPointExtension></extensions>
      </trkpt>
      <trkpt lat="60.1214619" lon="19.974828">
        <ele>2.54065</ele>
        <time>2014-11-23T14:47:45Z</time>
        <extensions><gpxtpx:TrackPointExtension><gpxtpx:hr>77</gpxtpx:hr></gpxtpx:TrackPointExtension></extensions>
      </trkpt>
      <trkpt lat="60.1214774" lon="19.9749316">
        <ele>0.137451</ele>
        <time>2014-11-23T14:47:50Z</time>
        <extensions><gpxtpx:TrackPointExtension><gpxtpx:hr>88</gpxtpx:hr></gpxtpx:TrackPointExtension></extensions>
      </trkpt>
      <trkpt lat="60.1214966" lon="19.9749752">
        <ele>0</ele>
        <time>2014-11-23T14:47:53Z</time>
        <extensions><gpxtpx:TrackPointExtension><gpxtpx:hr>88</gpxtpx:hr></gpxtpx:TrackPointExtension></extensions>
      </trkpt>
      <trkpt lat="60.1215209" lon="19.9750181">
        <ele>0</ele>
        <time>2014-11-23T14:47:55Z</time>
        <extensions><gpxtpx:TrackPointExtension><gpxtpx:hr>94</gpxtpx:hr></gpxtpx:TrackPointExtension></extensions>
      </trkpt>
      <trkpt lat="60.12153" lon="19.9750378">
        <ele>0</ele>
        <time>2014-11-23T14:47:56Z</time>
        <extensions><gpxtpx:TrackPointExtension><gpxtpx:hr>94</gpxtpx:hr></gpxtpx:TrackPointExtension></extensions>
      </trkpt>
      <trkpt lat="60.1215614" lon="19.9751391">
        <ele>0</ele>
        <time>2014-11-23T14:48:01Z</time>
        <extensions><gpxtpx:TrackPointExtension><gpxtpx:hr>94</gpxtpx:hr></gpxtpx:TrackPointExtension></extensions>
      </trkpt>
      <trkpt lat="60.1215824" lon="19.9752086">
        <ele>0</ele>
        <time>2014-11-23T14:48:04Z</time>
        <extensions><gpxtpx:TrackPointExtension><gpxtpx:hr>99</gpxtpx:hr></gpxtpx:TrackPointExtension></extensions>
      </trkpt>
      <trkpt lat="60.1215961" lon="19.9752284">
        <ele>0</ele>
        <time>2014-11-23T14:48:05Z</time>
        <extensions><gpxtpx:TrackPointExtension><gpxtpx:hr>99</gpxtpx:hr></gpxtpx:TrackPointExtension></extensions>
      </trkpt>
      <trkpt lat="60.1216468" lon="19.975309">
        <ele>1.09863</ele>
        <time>2014-11-23T14:48:10Z</time>
        <extensions><gpxtpx:TrackPointExtension><gpxtpx:hr>100</gpxtpx:hr></gpxtpx:TrackPointExtension></extensions>
      </trkpt>
      <trkpt lat="60.1216565" lon="19.9753984">
        <ele>2.06006</ele>
        <time>2014-11-23T14:48:14Z</time>
        <extensions><gpxtpx:TrackPointExtension><gpxtpx:hr>106</gpxtpx:hr></gpxtpx:TrackPointExtension></extensions>
      </trkpt>
      <trkpt lat="60.121659" lon="19.9754345">
        <ele>2.06006</ele>
        <time>2014-11-23T14:48:15Z</time>
        <extensions><gpxtpx:TrackPointExtension><gpxtpx:hr>106</gpxtpx:hr></gpxtpx:TrackPointExtension></extensions>
      </trkpt>
      <trkpt lat="60.1216603" lon="19.9754891">
        <ele>2.06006</ele>
        <time>2014-11-23T14:48:17Z</time>
        <extensions><gpxtpx:TrackPointExtension><gpxtpx:hr>106</gpxtpx:hr></gpxtpx:TrackPointExtension></extensions>
      </trkpt>
      <trkpt lat="60.1216881" lon="19.975679">
        <ele>0</ele>
        <time>2014-11-23T14:48:24Z</time>
        <extensions><gpxtpx:TrackPointExtension><gpxtpx:hr>108</gpxtpx:hr></gpxtpx:TrackPointExtension></extensions>
      </trkpt>
      <trkpt lat="60.1216908" lon="19.9757448">
        <ele>0</ele>
        <time>2014-11-23T14:48:27Z</time>
        <extensions><gpxtpx:TrackPointExtension><gpxtpx:hr>106</gpxtpx:hr></gpxtpx:TrackPointExtension></extensions>
      </trkpt>
      <trkpt lat="60.1217274" lon="19.9758952">
        <ele>0</ele>
        <time>2014-11-23T14:48:34Z</time>
        <extensions><gpxtpx:TrackPointExtension><gpxtpx:hr>106</gpxtpx:hr></gpxtpx:TrackPointExtension></extensions>
      </trkpt>
      <trkpt lat="60.1217281" lon="19.9759952">
        <ele>0</ele>
        <time>2014-11-23T14:48:39Z</time>
        <extensions><gpxtpx:TrackPointExtension><gpxtpx:hr>107</gpxtpx:hr></gpxtpx:TrackPointExtension></extensions>
      </trkpt>
      <trkpt lat="60.1217286" lon="19.9760287">
        <ele>0</ele>
        <time>2014-11-23T14:48:41Z</time>
        <extensions><gpxtpx:TrackPointExtension><gpxtpx:hr>107</gpxtpx:hr></gpxtpx:TrackPointExtension></extensions>
      </trkpt>
      <trkpt lat="60.12175" lon="19.9761195">
        <ele>0</ele>
        <time>2014-11-23T14:48:45Z</time>
        <extensions><gpxtpx:TrackPointExtension><gpxtpx:hr>100</gpxtpx:hr></gpxtpx:TrackPointExtension></extensions>
      </trkpt>
      <trkpt lat="60.1217534" lon="19.9761505">
        <ele>0</ele>
        <time>2014-11-23T14:48:46Z</time>
        <extensions><gpxtpx:TrackPointExtension><gpxtpx:hr>100</gpxtpx:hr></gpxtpx:TrackPointExtension></extensions>
      </trkpt>
      <trkpt lat="60.12176" lon="19.9762371">
        <ele>0</ele>
        <time>2014-11-23T14:48:49Z</time>
        <extensions><gpxtpx:TrackPointExtension><gpxtpx:hr>100</gpxtpx:hr></gpxtpx:TrackPointExtension></extensions>
      </trkpt>
      <trkpt lat="60.121793" lon="19.9763193">
        <ele>0</ele>
        <time>2014-11-23T14:48:52Z</time>
        <extensions><gpxtpx:TrackPointExtension><gpxtpx:hr>100</gpxtpx:hr></gpxtpx:TrackPointExtension></extensions>
      </trkpt>
      <trkpt lat="60.1217985" lon="19.9763671">
        <ele>0</ele>
        <time>2014-11-23T14:48:54Z</time>
        <extensions><gpxtpx:TrackPointExtension><gpxtpx:hr>94</gpxtpx:hr></gpxtpx:TrackPointExtension></extensions>
      </trkpt>
      <trkpt lat="60.121824" lon="19.9764583">
        <ele>0</ele>
        <time>2014-11-23T14:48:59Z</time>
        <extensions><gpxtpx:TrackPointExtension><gpxtpx:hr>99</gpxtpx:hr></gpxtpx:TrackPointExtension></extensions>
      </trkpt>
      <trkpt lat="60.1218415" lon="19.9765321">
        <ele>0</ele>
        <time>2014-11-23T14:49:02Z</time>
        <extensions><gpxtpx:TrackPointExtension><gpxtpx:hr>101</gpxtpx:hr></gpxtpx:TrackPointExtension></extensions>
      </trkpt>
      <trkpt lat="60.1218812" lon="19.9766853">
        <ele>0</ele>
        <time>2014-11-23T14:49:09Z</time>
        <extensions><gpxtpx:TrackPointExtension><gpxtpx:hr>102</gpxtpx:hr></gpxtpx:TrackPointExtension></extensions>
      </trkpt>
      <trkpt lat="60.1218981" lon="19.976773">
        <ele>0</ele>
        <time>2014-11-23T14:49:15Z</time>
        <extensions><gpxtpx:TrackPointExtension><gpxtpx:hr>103</gpxtpx:hr></gpxtpx:TrackPointExtension></extensions>
      </trkpt>
      <trkpt lat="60.1219132" lon="19.9768611">
        <ele>0</ele>
        <time>2014-11-23T14:49:19Z</time>
        <extensions><gpxtpx:TrackPointExtension><gpxtpx:hr>103</gpxtpx:hr></gpxtpx:TrackPointExtension></extensions>
      </trkpt>
      <trkpt lat="60.1219201" lon="19.9768953">
        <ele>0</ele>
        <time>2014-11-23T14:49:21Z</time>
        <extensions><gpxtpx:TrackPointExtension><gpxtpx:hr>103</gpxtpx:hr></gpxtpx:TrackPointExtension></extensions>
      </trkpt>
      <trkpt lat="60.1219804" lon="19.9769932">
        <ele>0</ele>
        <time>2014-11-23T14:49:26Z</time>
        <extensions><gpxtpx:TrackPointExtension><gpxtpx:hr>103</gpxtpx:hr></gpxtpx:TrackPointExtension></extensions>
      </trkpt>
      <trkpt lat="60.1219996" lon="19.977085">
        <ele>0</ele>
        <time>2014-11-23T14:49:32Z</time>
        <extensions><gpxtpx:TrackPointExtension><gpxtpx:hr>104</gpxtpx:hr></gpxtpx:TrackPointExtension></extensions>
      </trkpt>
      <trkpt lat="60.1220121" lon="19.9771415">
        <ele>0</ele>
        <time>2014-11-23T14:49:35Z</time>
        <extensions><gpxtpx:TrackPointExtension><gpxtpx:hr>103</gpxtpx:hr></gpxtpx:TrackPointExtension></extensions>
      </trkpt>
      <trkpt lat="60.1220431" lon="19.9771632">
        <ele>0</ele>
        <time>2014-11-23T14:49:37Z</time>
        <extensions><gpxtpx:TrackPointExtension><gpxtpx:hr>109</gpxtpx:hr></gpxtpx:TrackPointExtension></extensions>
      </trkpt>
      <trkpt lat="60.1220506" lon="19.9771783">
        <ele>0</ele>
        <time>2014-11-23T14:49:38Z</time>
        <extensions><gpxtpx:TrackPointExtension><gpxtpx:hr>109</gpxtpx:hr></gpxtpx:TrackPointExtension></extensions>
      </trkpt>
      <trkpt lat="60.12207" lon="19.9772575">
        <ele>0</ele>
        <time>2014-11-23T14:49:42Z</time>
        <extensions><gpxtpx:TrackPointExtension><gpxtpx:hr>107</gpxtpx:hr></gpxtpx:TrackPointExtension></extensions>
      </trkpt>
      <trkpt lat="60.122128" lon="19.977374">
        <ele>0</ele>
        <time>2014-11-23T14:49:50Z</time>
        <extensions><gpxtpx:TrackPointExtension><gpxtpx:hr>107</gpxtpx:hr></gpxtpx:TrackPointExtension></extensions>
      </trkpt>
      <trkpt lat="60.1221358" lon="19.9773869">
        <ele>0</ele>
        <time>2014-11-23T14:49:51Z</time>
        <extensions><gpxtpx:TrackPointExtension><gpxtpx:hr>107</gpxtpx:hr></gpxtpx:TrackPointExtension></extensions>
      </trkpt>
      <trkpt lat="60.1222187" lon="19.9774587">
        <ele>0</ele>
        <time>2014-11-23T14:49:58Z</time>
        <extensions><gpxtpx:TrackPointExtension><gpxtpx:hr>110</gpxtpx:hr></gpxtpx:TrackPointExtension></extensions>
      </trkpt>
      <trkpt lat="60.1222228" lon="19.9774636">
        <ele>0</ele>
        <time>2014-11-23T14:49:59Z</time>
        <extensions><gpxtpx:TrackPointExtension><gpxtpx:hr>110</gpxtpx:hr></gpxtpx:TrackPointExtension></extensions>
      </trkpt>
      <trkpt lat="60.1222581" lon="19.9775119">
        <ele>0</ele>
        <time>2014-11-23T14:50:02Z</time>
        <extensions><gpxtpx:TrackPointExtension><gpxtpx:hr>113</gpxtpx:hr></gpxtpx:TrackPointExtension></extensions>
      </trkpt>
      <trkpt lat="60.1222834" lon="19.9776504">
        <ele>0</ele>
        <time>2014-11-23T14:50:08Z</time>
        <extensions><gpxtpx:TrackPointExtension><gpxtpx:hr>109</gpxtpx:hr></gpxtpx:TrackPointExtension></extensions>
      </trkpt>
      <trkpt lat="60.1223239" lon="19.9776889">
        <ele>0</ele>
        <time>2014-11-23T14:50:11Z</time>
        <extensions><gpxtpx:TrackPointExtension><gpxtpx:hr>106</gpxtpx:hr></gpxtpx:TrackPointExtension></extensions>
      </trkpt>
      <trkpt lat="60.1223591" lon="19.9777082">
        <ele>0</ele>
        <time>2014-11-23T14:50:15Z</time>
        <extensions><gpxtpx:TrackPointExtension><gpxtpx:hr>104</gpxtpx:hr></gpxtpx:TrackPointExtension></extensions>
      </trkpt>
      <trkpt lat="60.1224296" lon="19.9778253">
        <ele>0</ele>
        <time>2014-11-23T14:50:22Z</time>
        <extensions><gpxtpx:TrackPointExtension><gpxtpx:hr>102</gpxtpx:hr></gpxtpx:TrackPointExtension></extensions>
      </trkpt>
      <trkpt lat="60.1224435" lon="19.9778625">
        <ele>0</ele>
        <time>2014-11-23T14:50:24Z</time>
        <extensions><gpxtpx:TrackPointExtension><gpxtpx:hr>102</gpxtpx:hr></gpxtpx:TrackPointExtension></extensions>
      </trkpt>
      <trkpt lat="60.1224588" lon="19.9780099">
        <ele>0</ele>
        <time>2014-11-23T14:50:31Z</time>
        <extensions><gpxtpx:TrackPointExtension><gpxtpx:hr>99</gpxtpx:hr></gpxtpx:TrackPointExtension></extensions>
      </trkpt>
      <trkpt lat="60.1224637" lon="19.978024">
        <ele>0</ele>
        <time>2014-11-23T14:50:32Z</time>
        <extensions><gpxtpx:TrackPointExtension><gpxtpx:hr>99</gpxtpx:hr></gpxtpx:TrackPointExtension></extensions>
      </trkpt>
      <trkpt lat="60.1225031" lon="19.9780645">
        <ele>0</ele>
        <time>2014-11-23T14:50:35Z</time>
        <extensions><gpxtpx:TrackPointExtension><gpxtpx:hr>98</gpxtpx:hr></gpxtpx:TrackPointExtension></extensions>
      </trkpt>
      <trkpt lat="60.1225827" lon="19.9781467">
        <ele>0</ele>
        <time>2014-11-23T14:50:41Z</time>
        <extensions><gpxtpx:TrackPointExtension><gpxtpx:hr>101</gpxtpx:hr></gpxtpx:TrackPointExtension></extensions>
      </trkpt>
      <trkpt lat="60.1226445" lon="19.9783691">
        <ele>0</ele>
        <time>2014-11-23T14:50:50Z</time>
        <extensions><gpxtpx:TrackPointExtension><gpxtpx:hr>104</gpxtpx:hr></gpxtpx:TrackPointExtension></extensions>
      </trkpt>
      <trkpt lat="60.1226964" lon="19.9785166">
        <ele>0</ele>
        <time>2014-11-23T14:50:56Z</time>
        <extensions><gpxtpx:TrackPointExtension><gpxtpx:hr>108</gpxtpx:hr></gpxtpx:TrackPointExtension></extensions>
      </trkpt>
      <trkpt lat="60.1227534" lon="19.9785811">
        <ele>1.09863</ele>
        <time>2014-11-23T14:51:00Z</time>
        <extensions><gpxtpx:TrackPointExtension><gpxtpx:hr>108</gpxtpx:hr></gpxtpx:TrackPointExtension></extensions>
      </trkpt>
      <trkpt lat="60.1228114" lon="19.9786903">
        <ele>3.50195</ele>
        <time>2014-11-23T14:51:05Z</time>
        <extensions><gpxtpx:TrackPointExtension><gpxtpx:hr>110</gpxtpx:hr></gpxtpx:TrackPointExtension></extensions>
      </trkpt>
      <trkpt lat="60.1228418" lon="19.9788198">
        <ele>1.57935</ele>
        <time>2014-11-23T14:51:11Z</time>
        <extensions><gpxtpx:TrackPointExtension><gpxtpx:hr>111</gpxtpx:hr></gpxtpx:TrackPointExtension></extensions>
      </trkpt>
      <trkpt lat="60.1228986" lon="19.9788896">
        <ele>1.57935</ele>
        <time>2014-11-23T14:51:17Z</time>
        <extensions><gpxtpx:TrackPointExtension><gpxtpx:hr>111</gpxtpx:hr></gpxtpx:TrackPointExtension></extensions>
      </trkpt>
      <trkpt lat="60.1229313" lon="19.9789104">
        <ele>3.50195</ele>
        <time>2014-11-23T14:51:19Z</time>
        <extensions><gpxtpx:TrackPointExtension><gpxtpx:hr>111</gpxtpx:hr></gpxtpx:TrackPointExtension></extensions>
      </trkpt>
      <trkpt lat="60.1230077" lon="19.9789654">
        <ele>3.02124</ele>
        <time>2014-11-23T14:51:26Z</time>
        <extensions><gpxtpx:TrackPointExtension><gpxtpx:hr>110</gpxtpx:hr></gpxtpx:TrackPointExtension></extensions>
      </trkpt>
      <trkpt lat="60.1230713" lon="19.9790219">
        <ele>5.42456</ele>
        <time>2014-11-23T14:51:32Z</time>
        <extensions><gpxtpx:TrackPointExtension><gpxtpx:hr>105</gpxtpx:hr></gpxtpx:TrackPointExtension></extensions>
      </trkpt>
      <trkpt lat="60.1231024" lon="19.9791053">
        <ele>1.57935</ele>
        <time>2014-11-23T14:51:37Z</time>
        <extensions><gpxtpx:TrackPointExtension><gpxtpx:hr>102</gpxtpx:hr></gpxtpx:TrackPointExtension></extensions>
      </trkpt>
      <trkpt lat="60.1231303" lon="19.9791925">
        <ele>0</ele>
        <time>2014-11-23T14:51:42Z</time>
        <extensions><gpxtpx:TrackPointExtension><gpxtpx:hr>101</gpxtpx:hr></gpxtpx:TrackPointExtension></extensions>
      </trkpt>
      <trkpt lat="60.1231442" lon="19.9792507">
        <ele>0</ele>
        <time>2014-11-23T14:51:45Z</time>
        <extensions><gpxtpx:TrackPointExtension><gpxtpx:hr>101</gpxtpx:hr></gpxtpx:TrackPointExtension></extensions>
      </trkpt>
      <trkpt lat="60.1231868" lon="19.9794269">
        <ele>0</ele>
        <time>2014-11-23T14:51:55Z</time>
        <extensions><gpxtpx:TrackPointExtension><gpxtpx:hr>102</gpxtpx:hr></gpxtpx:TrackPointExtension></extensions>
      </trkpt>
      <trkpt lat="60.1231914" lon="19.9794475">
        <ele>0</ele>
        <time>2014-11-23T14:51:56Z</time>
        <extensions><gpxtpx:TrackPointExtension><gpxtpx:hr>112</gpxtpx:hr></gpxtpx:TrackPointExtension></extensions>
      </trkpt>
      <trkpt lat="60.1231937" lon="19.9794642">
        <ele>0</ele>
        <time>2014-11-23T14:51:57Z</time>
        <extensions><gpxtpx:TrackPointExtension><gpxtpx:hr>112</gpxtpx:hr></gpxtpx:TrackPointExtension></extensions>
      </trkpt>
      <trkpt lat="60.1231971" lon="19.9794751">
        <ele>0</ele>
        <time>2014-11-23T14:51:58Z</time>
        <extensions><gpxtpx:TrackPointExtension><gpxtpx:hr>112</gpxtpx:hr></gpxtpx:TrackPointExtension></extensions>
      </trkpt>
      <trkpt lat="60.1232377" lon="19.9795605">
        <ele>0</ele>
        <time>2014-11-23T14:52:05Z</time>
        <extensions><gpxtpx:TrackPointExtension><gpxtpx:hr>109</gpxtpx:hr></gpxtpx:TrackPointExtension></extensions>
      </trkpt>
      <trkpt lat="60.1233016" lon="19.9796162">
        <ele>0</ele>
        <time>2014-11-23T14:52:12Z</time>
        <extensions><gpxtpx:TrackPointExtension><gpxtpx:hr>111</gpxtpx:hr></gpxtpx:TrackPointExtension></extensions>
      </trkpt>
      <trkpt lat="60.1233311" lon="19.9796537">
        <ele>0</ele>
        <time>2014-11-23T14:52:14Z</time>
        <extensions><gpxtpx:TrackPointExtension><gpxtpx:hr>121</gpxtpx:hr></gpxtpx:TrackPointExtension></extensions>
      </trkpt>
      <trkpt lat="60.1233453" lon="19.9796691">
        <ele>0</ele>
        <time>2014-11-23T14:52:15Z</time>
        <extensions><gpxtpx:TrackPointExtension><gpxtpx:hr>121</gpxtpx:hr></gpxtpx:TrackPointExtension></extensions>
      </trkpt>
      <trkpt lat="60.123353" lon="19.9796758">
        <ele>0</ele>
        <time>2014-11-23T14:52:16Z</time>
        <extensions><gpxtpx:TrackPointExtension><gpxtpx:hr>121</gpxtpx:hr></gpxtpx:TrackPointExtension></extensions>
      </trkpt>
      <trkpt lat="60.1233903" lon="19.9797362">
        <ele>0</ele>
        <time>2014-11-23T14:52:19Z</time>
        <extensions><gpxtpx:TrackPointExtension><gpxtpx:hr>126</gpxtpx:hr></gpxtpx:TrackPointExtension></extensions>
      </trkpt>
      <trkpt lat="60.1234071" lon="19.9797649">
        <ele>0</ele>
        <time>2014-11-23T14:52:20Z</time>
        <extensions><gpxtpx:TrackPointExtension><gpxtpx:hr>136</gpxtpx:hr></gpxtpx:TrackPointExtension></extensions>
      </trkpt>
      <trkpt lat="60.1234815" lon="19.9798873">
        <ele>0</ele>
        <time>2014-11-23T14:52:25Z</time>
        <extensions><gpxtpx:TrackPointExtension><gpxtpx:hr>126</gpxtpx:hr></gpxtpx:TrackPointExtension></extensions>
      </trkpt>
      <trkpt lat="60.1234939" lon="19.9799053">
        <ele>0</ele>
        <time>2014-11-23T14:52:26Z</time>
        <extensions><gpxtpx:TrackPointExtension><gpxtpx:hr>121</gpxtpx:hr></gpxtpx:TrackPointExtension></extensions>
      </trkpt>
      <trkpt lat="60.1235308" lon="19.9799485">
        <ele>0</ele>
        <time>2014-11-23T14:52:28Z</time>
        <extensions><gpxtpx:TrackPointExtension><gpxtpx:hr>115</gpxtpx:hr></gpxtpx:TrackPointExtension></extensions>
      </trkpt>
      <trkpt lat="60.1235632" lon="19.9800397">
        <ele>0</ele>
        <time>2014-11-23T14:52:32Z</time>
        <extensions><gpxtpx:TrackPointExtension><gpxtpx:hr>110</gpxtpx:hr></gpxtpx:TrackPointExtension></extensions>
      </trkpt>
      <trkpt lat="60.1235635" lon="19.9801578">
        <ele>0</ele>
        <time>2014-11-23T14:52:39Z</time>
        <extensions><gpxtpx:TrackPointExtension><gpxtpx:hr>107</gpxtpx:hr></gpxtpx:TrackPointExtension></extensions>
      </trkpt>
      <trkpt lat="60.1235934" lon="19.9803095">
        <ele>0</ele>
        <time>2014-11-23T14:52:46Z</time>
        <extensions><gpxtpx:TrackPointExtension><gpxtpx:hr>108</gpxtpx:hr></gpxtpx:TrackPointExtension></extensions>
      </trkpt>
      <trkpt lat="60.1236011" lon="19.9803717">
        <ele>0</ele>
        <time>2014-11-23T14:52:49Z</time>
        <extensions><gpxtpx:TrackPointExtension><gpxtpx:hr>108</gpxtpx:hr></gpxtpx:TrackPointExtension></extensions>
      </trkpt>
      <trkpt lat="60.1236373" lon="19.9805197">
        <ele>0</ele>
        <time>2014-11-23T14:52:56Z</time>
        <extensions><gpxtpx:TrackPointExtension><gpxtpx:hr>110</gpxtpx:hr></gpxtpx:TrackPointExtension></extensions>
      </trkpt>
      <trkpt lat="60.1236471" lon="19.9805442">
        <ele>0</ele>
        <time>2014-11-23T14:52:57Z</time>
        <extensions><gpxtpx:TrackPointExtension><gpxtpx:hr>110</gpxtpx:hr></gpxtpx:TrackPointExtension></extensions>
      </trkpt>
      <trkpt lat="60.1237155" lon="19.9806535">
        <ele>0</ele>
        <time>2014-11-23T14:53:04Z</time>
        <extensions><gpxtpx:TrackPointExtension><gpxtpx:hr>112</gpxtpx:hr></gpxtpx:TrackPointExtension></extensions>
      </trkpt>
      <trkpt lat="60.1237453" lon="19.9806973">
        <ele>0</ele>
        <time>2014-11-23T14:53:06Z</time>
        <extensions><gpxtpx:TrackPointExtension><gpxtpx:hr>113</gpxtpx:hr></gpxtpx:TrackPointExtension></extensions>
      </trkpt>
      <trkpt lat="60.123869" lon="19.9808825">
        <ele>7.34717</ele>
        <time>2014-11-23T14:53:14Z</time>
        <extensions><gpxtpx:TrackPointExtension><gpxtpx:hr>116</gpxtpx:hr></gpxtpx:TrackPointExtension></extensions>
      </trkpt>
      <trkpt lat="60.1239333" lon="19.9809973">
        <ele>10.7118</ele>
        <time>2014-11-23T14:53:20Z</time>
        <extensions><gpxtpx:TrackPointExtension><gpxtpx:hr>116</gpxtpx:hr></gpxtpx:TrackPointExtension></extensions>
      </trkpt>
      <trkpt lat="60.1240033" lon="19.9810699">
        <ele>15.5184</ele>
        <time>2014-11-23T14:53:27Z</time>
        <extensions><gpxtpx:TrackPointExtension><gpxtpx:hr>120</gpxtpx:hr></gpxtpx:TrackPointExtension></extensions>
      </trkpt>
      <trkpt lat="60.1240512" lon="19.9812165">
        <ele>16.9604</ele>
        <time>2014-11-23T14:53:34Z</time>
        <extensions><gpxtpx:TrackPointExtension><gpxtpx:hr>122</gpxtpx:hr></gpxtpx:TrackPointExtension></extensions>
      </trkpt>
      <trkpt lat="60.1241121" lon="19.9813419">
        <ele>18.8831</ele>
        <time>2014-11-23T14:53:40Z</time>
        <extensions><gpxtpx:TrackPointExtension><gpxtpx:hr>119</gpxtpx:hr></gpxtpx:TrackPointExtension></extensions>
      </trkpt>
      <trkpt lat="60.1241389" lon="19.981429">
        <ele>17.9218</ele>
        <time>2014-11-23T14:53:45Z</time>
        <extensions><gpxtpx:TrackPointExtension><gpxtpx:hr>122</gpxtpx:hr></gpxtpx:TrackPointExtension></extensions>
      </trkpt>
      <trkpt lat="60.1241555" lon="19.9815187">
        <ele>16.4797</ele>
        <time>2014-11-23T14:53:49Z</time>
        <extensions><gpxtpx:TrackPointExtension><gpxtpx:hr>122</gpxtpx:hr></gpxtpx:TrackPointExtension></extensions>
      </trkpt>
      <trkpt lat="60.1242105" lon="19.9817305">
        <ele>20.8057</ele>
        <time>2014-11-23T14:53:58Z</time>
        <extensions><gpxtpx:TrackPointExtension><gpxtpx:hr>123</gpxtpx:hr></gpxtpx:TrackPointExtension></extensions>
      </trkpt>
      <trkpt lat="60.1242317" lon="19.981936">
        <ele>25.1317</ele>
        <time>2014-11-23T14:54:05Z</time>
        <extensions><gpxtpx:TrackPointExtension><gpxtpx:hr>125</gpxtpx:hr></gpxtpx:TrackPointExtension></extensions>
      </trkpt>
      <trkpt lat="60.1242378" lon="19.9820535">
        <ele>25.1317</ele>
        <time>2014-11-23T14:54:10Z</time>
        <extensions><gpxtpx:TrackPointExtension><gpxtpx:hr>127</gpxtpx:hr></gpxtpx:TrackPointExtension></extensions>
      </trkpt>
      <trkpt lat="60.1242404" lon="19.982103">
        <ele>26.0929</ele>
        <time>2014-11-23T14:54:12Z</time>
        <extensions><gpxtpx:TrackPointExtension><gpxtpx:hr>134</gpxtpx:hr></gpxtpx:TrackPointExtension></extensions>
      </trkpt>
      <trkpt lat="60.1242414" lon="19.9821298">
        <ele>26.5736</ele>
        <time>2014-11-23T14:54:13Z</time>
        <extensions><gpxtpx:TrackPointExtension><gpxtpx:hr>134</gpxtpx:hr></gpxtpx:TrackPointExtension></extensions>
      </trkpt>
      <trkpt lat="60.1242446" lon="19.982191">
        <ele>27.5349</ele>
        <time>2014-11-23T14:54:15Z</time>
        <extensions><gpxtpx:TrackPointExtension><gpxtpx:hr>134</gpxtpx:hr></gpxtpx:TrackPointExtension></extensions>
      </trkpt>
      <trkpt lat="60.124228" lon="19.982339">
        <ele>30.4188</ele>
        <time>2014-11-23T14:54:21Z</time>
        <extensions><gpxtpx:TrackPointExtension><gpxtpx:hr>131</gpxtpx:hr></gpxtpx:TrackPointExtension></extensions>
      </trkpt>
      <trkpt lat="60.1242392" lon="19.9825068">
        <ele>29.9381</ele>
        <time>2014-11-23T14:54:28Z</time>
        <extensions><gpxtpx:TrackPointExtension><gpxtpx:hr>132</gpxtpx:hr></gpxtpx:TrackPointExtension></extensions>
      </trkpt>
      <trkpt lat="60.1242358" lon="19.9826593">
        <ele>28.4962</ele>
        <time>2014-11-23T14:54:34Z</time>
        <extensions><gpxtpx:TrackPointExtension><gpxtpx:hr>133</gpxtpx:hr></gpxtpx:TrackPointExtension></extensions>
      </trkpt>
      <trkpt lat="60.1242584" lon="19.9827955">
        <ele>27.5349</ele>
        <time>2014-11-23T14:54:40Z</time>
        <extensions><gpxtpx:TrackPointExtension><gpxtpx:hr>132</gpxtpx:hr></gpxtpx:TrackPointExtension></extensions>
      </trkpt>
      <trkpt lat="60.1242411" lon="19.982899">
        <ele>27.0543</ele>
        <time>2014-11-23T14:54:44Z</time>
        <extensions><gpxtpx:TrackPointExtension><gpxtpx:hr>143</gpxtpx:hr></gpxtpx:TrackPointExtension></extensions>
      </trkpt>
      <trkpt lat="60.1242385" lon="19.9829317">
        <ele>27.0543</ele>
        <time>2014-11-23T14:54:45Z</time>
        <extensions><gpxtpx:TrackPointExtension><gpxtpx:hr>143</gpxtpx:hr></gpxtpx:TrackPointExtension></extensions>
      </trkpt>
      <trkpt lat="60.1242399" lon="19.9829898">
        <ele>26.5736</ele>
        <time>2014-11-23T14:54:47Z</time>
        <extensions><gpxtpx:TrackPointExtension><gpxtpx:hr>140</gpxtpx:hr></gpxtpx:TrackPointExtension></extensions>
      </trkpt>
      <trkpt lat="60.1242384" lon="19.9830213">
        <ele>26.0929</ele>
        <time>2014-11-23T14:54:49Z</time>
        <extensions><gpxtpx:TrackPointExtension><gpxtpx:hr>132</gpxtpx:hr></gpxtpx:TrackPointExtension></extensions>
      </trkpt>
      <trkpt lat="60.1242378" lon="19.9831134">
        <ele>24.1703</ele>
        <time>2014-11-23T14:54:53Z</time>
        <extensions><gpxtpx:TrackPointExtension><gpxtpx:hr>124</gpxtpx:hr></gpxtpx:TrackPointExtension></extensions>
      </trkpt>
      <trkpt lat="60.12417" lon="19.9831954">
        <ele>22.7283</ele>
        <time>2014-11-23T14:54:59Z</time>
        <extensions><gpxtpx:TrackPointExtension><gpxtpx:hr>121</gpxtpx:hr></gpxtpx:TrackPointExtension></extensions>
      </trkpt>
      <trkpt lat="60.1241632" lon="19.9831736">
        <ele>21.767</ele>
        <time>2014-11-23T14:55:00Z</time>
        <extensions><gpxtpx:TrackPointExtension><gpxtpx:hr>121</gpxtpx:hr></gpxtpx:TrackPointExtension></extensions>
      </trkpt>
      <trkpt lat="60.124114" lon="19.9830574">
        <ele>20.325</ele>
        <time>2014-11-23T14:55:06Z</time>
        <extensions><gpxtpx:TrackPointExtension><gpxtpx:hr>115</gpxtpx:hr></gpxtpx:TrackPointExtension></extensions>
      </trkpt>
      <trkpt lat="60.1240582" lon="19.9829891">
        <ele>17.9218</ele>
        <time>2014-11-23T14:55:11Z</time>
        <extensions><gpxtpx:TrackPointExtension><gpxtpx:hr>115</gpxtpx:hr></gpxtpx:TrackPointExtension></extensions>
      </trkpt>
      <trkpt lat="60.1240424" lon="19.9829596">
        <ele>15.999</ele>
        <time>2014-11-23T14:55:13Z</time>
        <extensions><gpxtpx:TrackPointExtension><gpxtpx:hr>124</gpxtpx:hr></gpxtpx:TrackPointExtension></extensions>
      </trkpt>
      <trkpt lat="60.1240295" lon="19.9829429">
        <ele>15.0377</ele>
        <time>2014-11-23T14:55:15Z</time>
        <extensions><gpxtpx:TrackPointExtension><gpxtpx:hr>121</gpxtpx:hr></gpxtpx:TrackPointExtension></extensions>
      </trkpt>
      <trkpt lat="60.1239882" lon="19.9829261">
        <ele>14.0764</ele>
        <time>2014-11-23T14:55:19Z</time>
        <extensions><gpxtpx:TrackPointExtension><gpxtpx:hr>118</gpxtpx:hr></gpxtpx:TrackPointExtension></extensions>
      </trkpt>
      <trkpt lat="60.1239198" lon="19.9829098">
        <ele>10.2312</ele>
        <time>2014-11-23T14:55:26Z</time>
        <extensions><gpxtpx:TrackPointExtension><gpxtpx:hr>119</gpxtpx:hr></gpxtpx:TrackPointExtension></extensions>
      </trkpt>
      <trkpt lat="60.1238461" lon="19.9830074">
        <ele>7.82788</ele>
        <time>2014-11-23T14:55:35Z</time>
        <extensions><gpxtpx:TrackPointExtension><gpxtpx:hr>118</gpxtpx:hr></gpxtpx:TrackPointExtension></extensions>
      </trkpt>
      <trkpt lat="60.1238463" lon="19.9830917">
        <ele>8.30859</ele>
        <time>2014-11-23T14:55:38Z</time>
        <extensions><gpxtpx:TrackPointExtension><gpxtpx:hr>120</gpxtpx:hr></gpxtpx:TrackPointExtension></extensions>
      </trkpt>
      <trkpt lat="60.1238512" lon="19.9831568">
        <ele>10.7118</ele>
        <time>2014-11-23T14:55:41Z</time>
        <extensions><gpxtpx:TrackPointExtension><gpxtpx:hr>120</gpxtpx:hr></gpxtpx:TrackPointExtension></extensions>
      </trkpt>
      <trkpt lat="60.1238447" lon="19.983216">
        <ele>11.1925</ele>
        <time>2014-11-23T14:55:44Z</time>
        <extensions><gpxtpx:TrackPointExtension><gpxtpx:hr>121</gpxtpx:hr></gpxtpx:TrackPointExtension></extensions>
      </trkpt>
      <trkpt lat="60.1238629" lon="19.9833336">
        <ele>14.557</ele>
        <time>2014-11-23T14:55:49Z</time>
        <extensions><gpxtpx:TrackPointExtension><gpxtpx:hr>115</gpxtpx:hr></gpxtpx:TrackPointExtension></extensions>
      </trkpt>
      <trkpt lat="60.1238847" lon="19.9834829">
        <ele>14.0764</ele>
        <time>2014-11-23T14:55:54Z</time>
        <extensions><gpxtpx:TrackPointExtension><gpxtpx:hr>112</gpxtpx:hr></gpxtpx:TrackPointExtension></extensions>
      </trkpt>
      <trkpt lat="60.1238892" lon="19.9835041">
        <ele>15.5184</ele>
        <time>2014-11-23T14:55:55Z</time>
        <extensions><gpxtpx:TrackPointExtension><gpxtpx:hr>111</gpxtpx:hr></gpxtpx:TrackPointExtension></extensions>
      </trkpt>
      <trkpt lat="60.1239343" lon="19.9837145">
        <ele>16.4797</ele>
        <time>2014-11-23T14:56:03Z</time>
        <extensions><gpxtpx:TrackPointExtension><gpxtpx:hr>108</gpxtpx:hr></gpxtpx:TrackPointExtension></extensions>
      </trkpt>
      <trkpt lat="60.1239554" lon="19.9838416">
        <ele>16.9604</ele>
        <time>2014-11-23T14:56:08Z</time>
        <extensions><gpxtpx:TrackPointExtension><gpxtpx:hr>108</gpxtpx:hr></gpxtpx:TrackPointExtension></extensions>
      </trkpt>
      <trkpt lat="60.1239644" lon="19.9839154">
        <ele>15.999</ele>
        <time>2014-11-23T14:56:10Z</time>
        <extensions><gpxtpx:TrackPointExtension><gpxtpx:hr>108</gpxtpx:hr></gpxtpx:TrackPointExtension></extensions>
      </trkpt>
      <trkpt lat="60.1239912" lon="19.9839972">
        <ele>16.4797</ele>
        <time>2014-11-23T14:56:14Z</time>
        <extensions><gpxtpx:TrackPointExtension><gpxtpx:hr>106</gpxtpx:hr></gpxtpx:TrackPointExtension></extensions>
      </trkpt>
      <trkpt lat="60.1240549" lon="19.9841682">
        <ele>17.4412</ele>
        <time>2014-11-23T14:56:21Z</time>
        <extensions><gpxtpx:TrackPointExtension><gpxtpx:hr>104</gpxtpx:hr></gpxtpx:TrackPointExtension></extensions>
      </trkpt>
      <trkpt lat="60.1240431" lon="19.9842946">
        <ele>19.3638</ele>
        <time>2014-11-23T14:56:27Z</time>
        <extensions><gpxtpx:TrackPointExtension><gpxtpx:hr>104</gpxtpx:hr></gpxtpx:TrackPointExtension></extensions>
      </trkpt>
      <trkpt lat="60.1240316" lon="19.9844698">
        <ele>19.3638</ele>
        <time>2014-11-23T14:56:34Z</time>
        <extensions><gpxtpx:TrackPointExtension><gpxtpx:hr>104</gpxtpx:hr></gpxtpx:TrackPointExtension></extensions>
      </trkpt>
      <trkpt lat="60.1240323" lon="19.9845221">
        <ele>19.8444</ele>
        <time>2014-11-23T14:56:36Z</time>
        <extensions><gpxtpx:TrackPointExtension><gpxtpx:hr>104</gpxtpx:hr></gpxtpx:TrackPointExtension></extensions>
      </trkpt>
      <trkpt lat="60.1240585" lon="19.9846738">
        <ele>20.325</ele>
        <time>2014-11-23T14:56:42Z</time>
        <extensions><gpxtpx:TrackPointExtension><gpxtpx:hr>106</gpxtpx:hr></gpxtpx:TrackPointExtension></extensions>
      </trkpt>
      <trkpt lat="60.1240462" lon="19.9847728">
        <ele>19.8444</ele>
        <time>2014-11-23T14:56:46Z</time>
        <extensions><gpxtpx:TrackPointExtension><gpxtpx:hr>107</gpxtpx:hr></gpxtpx:TrackPointExtension></extensions>
      </trkpt>
      <trkpt lat="60.1240037" lon="19.9848675">
        <ele>15.999</ele>
        <time>2014-11-23T14:56:52Z</time>
        <extensions><gpxtpx:TrackPointExtension><gpxtpx:hr>106</gpxtpx:hr></gpxtpx:TrackPointExtension></extensions>
      </trkpt>
      <trkpt lat="60.1239709" lon="19.9850016">
        <ele>15.0377</ele>
        <time>2014-11-23T14:56:57Z</time>
        <extensions><gpxtpx:TrackPointExtension><gpxtpx:hr>104</gpxtpx:hr></gpxtpx:TrackPointExtension></extensions>
      </trkpt>
      <trkpt lat="60.1239514" lon="19.9850655">
        <ele>14.0764</ele>
        <time>2014-11-23T14:57:00Z</time>
        <extensions><gpxtpx:TrackPointExtension><gpxtpx:hr>102</gpxtpx:hr></gpxtpx:TrackPointExtension></extensions>
      </trkpt>
      <trkpt lat="60.1239271" lon="19.9851431">
        <ele>13.1151</ele>
        <time>2014-11-23T14:57:04Z</time>
        <extensions><gpxtpx:TrackPointExtension><gpxtpx:hr>99</gpxtpx:hr></gpxtpx:TrackPointExtension></extensions>
      </trkpt>
      <trkpt lat="60.123902" lon="19.985199">
        <ele>13.5958</ele>
        <time>2014-11-23T14:57:08Z</time>
        <extensions><gpxtpx:TrackPointExtension><gpxtpx:hr>101</gpxtpx:hr></gpxtpx:TrackPointExtension></extensions>
      </trkpt>
      <trkpt lat="60.1238126" lon="19.9852938">
        <ele>14.0764</ele>
        <time>2014-11-23T14:57:16Z</time>
        <extensions><gpxtpx:TrackPointExtension><gpxtpx:hr>99</gpxtpx:hr></gpxtpx:TrackPointExtension></extensions>
      </trkpt>
      <trkpt lat="60.1237555" lon="19.9853766">
        <ele>15.5184</ele>
        <time>2014-11-23T14:57:22Z</time>
        <extensions><gpxtpx:TrackPointExtension><gpxtpx:hr>100</gpxtpx:hr></gpxtpx:TrackPointExtension></extensions>
      </trkpt>
      <trkpt lat="60.1236868" lon="19.9853902">
        <ele>15.999</ele>
        <time>2014-11-23T14:57:28Z</time>
        <extensions><gpxtpx:TrackPointExtension><gpxtpx:hr>103</gpxtpx:hr></gpxtpx:TrackPointExtension></extensions>
      </trkpt>
      <trkpt lat="60.1236096" lon="19.9854494">
        <ele>15.5184</ele>
        <time>2014-11-23T14:57:34Z</time>
        <extensions><gpxtpx:TrackPointExtension><gpxtpx:hr>103</gpxtpx:hr></gpxtpx:TrackPointExtension></extensions>
      </trkpt>
      <trkpt lat="60.1235272" lon="19.9854915">
        <ele>15.5184</ele>
        <time>2014-11-23T14:57:40Z</time>
        <extensions><gpxtpx:TrackPointExtension><gpxtpx:hr>101</gpxtpx:hr></gpxtpx:TrackPointExtension></extensions>
      </trkpt>
      <trkpt lat="60.1234982" lon="19.9855">
        <ele>14.557</ele>
        <time>2014-11-23T14:57:42Z</time>
        <extensions><gpxtpx:TrackPointExtension><gpxtpx:hr>101</gpxtpx:hr></gpxtpx:TrackPointExtension></extensions>
      </trkpt>
      <trkpt lat="60.1234092" lon="19.98552">
        <ele>12.1538</ele>
        <time>2014-11-23T14:57:48Z</time>
        <extensions><gpxtpx:TrackPointExtension><gpxtpx:hr>102</gpxtpx:hr></gpxtpx:TrackPointExtension></extensions>
      </trkpt>
      <trkpt lat="60.1233377" lon="19.9855492">
        <ele>11.1925</ele>
        <time>2014-11-23T14:57:53Z</time>
        <extensions><gpxtpx:TrackPointExtension><gpxtpx:hr>102</gpxtpx:hr></gpxtpx:TrackPointExtension></extensions>
      </trkpt>
      <trkpt lat="60.1232545" lon="19.9856143">
        <ele>8.78918</ele>
        <time>2014-11-23T14:57:59Z</time>
        <extensions><gpxtpx:TrackPointExtension><gpxtpx:hr>105</gpxtpx:hr></gpxtpx:TrackPointExtension></extensions>
      </trkpt>
      <trkpt lat="60.1232004" lon="19.9855956">
        <ele>9.75061</ele>
        <time>2014-11-23T14:58:04Z</time>
        <extensions><gpxtpx:TrackPointExtension><gpxtpx:hr>103</gpxtpx:hr></gpxtpx:TrackPointExtension></extensions>
      </trkpt>
      <trkpt lat="60.1231935" lon="19.9855662">
        <ele>10.7118</ele>
        <time>2014-11-23T14:58:06Z</time>
        <extensions><gpxtpx:TrackPointExtension><gpxtpx:hr>105</gpxtpx:hr></gpxtpx:TrackPointExtension></extensions>
      </trkpt>
      <trkpt lat="60.1230963" lon="19.9855145">
        <ele>10.7118</ele>
        <time>2014-11-23T14:58:13Z</time>
        <extensions><gpxtpx:TrackPointExtension><gpxtpx:hr>110</gpxtpx:hr></gpxtpx:TrackPointExtension></extensions>
      </trkpt>
      <trkpt lat="60.1230692" lon="19.9854991">
        <ele>11.1925</ele>
        <time>2014-11-23T14:58:15Z</time>
        <extensions><gpxtpx:TrackPointExtension><gpxtpx:hr>110</gpxtpx:hr></gpxtpx:TrackPointExtension></extensions>
      </trkpt>
      <trkpt lat="60.1230328" lon="19.9854776">
        <ele>13.1151</ele>
        <time>2014-11-23T14:58:18Z</time>
        <extensions><gpxtpx:TrackPointExtension><gpxtpx:hr>111</gpxtpx:hr></gpxtpx:TrackPointExtension></extensions>
      </trkpt>
      <trkpt lat="60.122934" lon="19.9854025">
        <ele>9.2699</ele>
        <time>2014-11-23T14:58:26Z</time>
        <extensions><gpxtpx:TrackPointExtension><gpxtpx:hr>114</gpxtpx:hr></gpxtpx:TrackPointExtension></extensions>
      </trkpt>
      <trkpt lat="60.122874" lon="19.9853839">
        <ele>7.82788</ele>
        <time>2014-11-23T14:58:31Z</time>
        <extensions><gpxtpx:TrackPointExtension><gpxtpx:hr>114</gpxtpx:hr></gpxtpx:TrackPointExtension></extensions>
      </trkpt>
      <trkpt lat="60.1227931" lon="19.9853204">
        <ele>7.82788</ele>
        <time>2014-11-23T14:58:40Z</time>
        <extensions><gpxtpx:TrackPointExtension><gpxtpx:hr>114</gpxtpx:hr></gpxtpx:TrackPointExtension></extensions>
      </trkpt>
      <trkpt lat="60.1227797" lon="19.9852799">
        <ele>7.34717</ele>
        <time>2014-11-23T14:58:43Z</time>
        <extensions><gpxtpx:TrackPointExtension><gpxtpx:hr>114</gpxtpx:hr></gpxtpx:TrackPointExtension></extensions>
      </trkpt>
      <trkpt lat="60.1227642" lon="19.9852565">
        <ele>7.82788</ele>
        <time>2014-11-23T14:58:45Z</time>
        <extensions><gpxtpx:TrackPointExtension><gpxtpx:hr>115</gpxtpx:hr></gpxtpx:TrackPointExtension></extensions>
      </trkpt>
      <trkpt lat="60.1227429" lon="19.9851458">
        <ele>9.75061</ele>
        <time>2014-11-23T14:58:51Z</time>
        <extensions><gpxtpx:TrackPointExtension><gpxtpx:hr>120</gpxtpx:hr></gpxtpx:TrackPointExtension></extensions>
      </trkpt>
      <trkpt lat="60.1227225" lon="19.9849709">
        <ele>16.4797</ele>
        <time>2014-11-23T14:58:59Z</time>
        <extensions><gpxtpx:TrackPointExtension><gpxtpx:hr>124</gpxtpx:hr></gpxtpx:TrackPointExtension></extensions>
      </trkpt>
      <trkpt lat="60.1227294" lon="19.9848539">
        <ele>18.8831</ele>
        <time>2014-11-23T14:59:05Z</time>
        <extensions><gpxtpx:TrackPointExtension><gpxtpx:hr>128</gpxtpx:hr></gpxtpx:TrackPointExtension></extensions>
      </trkpt>
      <trkpt lat="60.1227393" lon="19.9848162">
        <ele>19.3638</ele>
        <time>2014-11-23T14:59:07Z</time>
        <extensions><gpxtpx:TrackPointExtension><gpxtpx:hr>128</gpxtpx:hr></gpxtpx:TrackPointExtension></extensions>
      </trkpt>
      <trkpt lat="60.1227487" lon="19.9847349">
        <ele>21.2864</ele>
        <time>2014-11-23T14:59:11Z</time>
        <extensions><gpxtpx:TrackPointExtension><gpxtpx:hr>130</gpxtpx:hr></gpxtpx:TrackPointExtension></extensions>
      </trkpt>
      <trkpt lat="60.1227702" lon="19.9846488">
        <ele>22.2476</ele>
        <time>2014-11-23T14:59:16Z</time>
        <extensions><gpxtpx:TrackPointExtension><gpxtpx:hr>132</gpxtpx:hr></gpxtpx:TrackPointExtension></extensions>
      </trkpt>
      <trkpt lat="60.1227921" lon="19.9845546">
        <ele>23.209</ele>
        <time>2014-11-23T14:59:20Z</time>
        <extensions><gpxtpx:TrackPointExtension><gpxtpx:hr>135</gpxtpx:hr></gpxtpx:TrackPointExtension></extensions>
      </trkpt>
      <trkpt lat="60.1227833" lon="19.9843968">
        <ele>23.6896</ele>
        <time>2014-11-23T14:59:26Z</time>
        <extensions><gpxtpx:TrackPointExtension><gpxtpx:hr>138</gpxtpx:hr></gpxtpx:TrackPointExtension></extensions>
      </trkpt>
      <trkpt lat="60.1227761" lon="19.9842279">
        <ele>22.7283</ele>
        <time>2014-11-23T14:59:31Z</time>
        <extensions><gpxtpx:TrackPointExtension><gpxtpx:hr>140</gpxtpx:hr></gpxtpx:TrackPointExtension></extensions>
      </trkpt>
      <trkpt lat="60.1227663" lon="19.9840691">
        <ele>23.6896</ele>
        <time>2014-11-23T14:59:37Z</time>
        <extensions><gpxtpx:TrackPointExtension><gpxtpx:hr>140</gpxtpx:hr></gpxtpx:TrackPointExtension></extensions>
      </trkpt>
      <trkpt lat="60.1227165" lon="19.9840222">
        <ele>23.209</ele>
        <time>2014-11-23T14:59:43Z</time>
        <extensions><gpxtpx:TrackPointExtension><gpxtpx:hr>138</gpxtpx:hr></gpxtpx:TrackPointExtension></extensions>
      </trkpt>
      <trkpt lat="60.1226388" lon="19.9840781">
        <ele>21.2864</ele>
        <time>2014-11-23T14:59:49Z</time>
        <extensions><gpxtpx:TrackPointExtension><gpxtpx:hr>135</gpxtpx:hr></gpxtpx:TrackPointExtension></extensions>
      </trkpt>
      <trkpt lat="60.1225848" lon="19.9841207">
        <ele>21.767</ele>
        <time>2014-11-23T14:59:54Z</time>
        <extensions><gpxtpx:TrackPointExtension><gpxtpx:hr>130</gpxtpx:hr></gpxtpx:TrackPointExtension></extensions>
      </trkpt>
      <trkpt lat="60.1225424" lon="19.9840678">
        <ele>22.2476</ele>
        <time>2014-11-23T14:59:58Z</time>
        <extensions><gpxtpx:TrackPointExtension><gpxtpx:hr>126</gpxtpx:hr></gpxtpx:TrackPointExtension></extensions>
      </trkpt>
      <trkpt lat="60.1225252" lon="19.9840373">
        <ele>21.767</ele>
        <time>2014-11-23T15:00:00Z</time>
        <extensions><gpxtpx:TrackPointExtension><gpxtpx:hr>124</gpxtpx:hr></gpxtpx:TrackPointExtension></extensions>
      </trkpt>
      <trkpt lat="60.1224751" lon="19.983889">
        <ele>21.2864</ele>
        <time>2014-11-23T15:00:06Z</time>
        <extensions><gpxtpx:TrackPointExtension><gpxtpx:hr>121</gpxtpx:hr></gpxtpx:TrackPointExtension></extensions>
      </trkpt>
      <trkpt lat="60.1223962" lon="19.9837527">
        <ele>21.767</ele>
        <time>2014-11-23T15:00:14Z</time>
        <extensions><gpxtpx:TrackPointExtension><gpxtpx:hr>115</gpxtpx:hr></gpxtpx:TrackPointExtension></extensions>
      </trkpt>
      <trkpt lat="60.1223767" lon="19.9836901">
        <ele>21.767</ele>
        <time>2014-11-23T15:00:17Z</time>
        <extensions><gpxtpx:TrackPointExtension><gpxtpx:hr>110</gpxtpx:hr></gpxtpx:TrackPointExtension></extensions>
      </trkpt>
      <trkpt lat="60.1223491" lon="19.9835476">
        <ele>21.2864</ele>
        <time>2014-11-23T15:00:23Z</time>
        <extensions><gpxtpx:TrackPointExtension><gpxtpx:hr>109</gpxtpx:hr></gpxtpx:TrackPointExtension></extensions>
      </trkpt>
      <trkpt lat="60.1223486" lon="19.9833782">
        <ele>20.8057</ele>
        <time>2014-11-23T15:00:30Z</time>
        <extensions><gpxtpx:TrackPointExtension><gpxtpx:hr>107</gpxtpx:hr></gpxtpx:TrackPointExtension></extensions>
      </trkpt>
      <trkpt lat="60.1223327" lon="19.9831768">
        <ele>20.8057</ele>
        <time>2014-11-23T15:00:38Z</time>
        <extensions><gpxtpx:TrackPointExtension><gpxtpx:hr>106</gpxtpx:hr></gpxtpx:TrackPointExtension></extensions>
      </trkpt>
      <trkpt lat="60.1223304" lon="19.9831188">
        <ele>21.2864</ele>
        <time>2014-11-23T15:00:40Z</time>
        <extensions><gpxtpx:TrackPointExtension><gpxtpx:hr>108</gpxtpx:hr></gpxtpx:TrackPointExtension></extensions>
      </trkpt>
      <trkpt lat="60.1223247" lon="19.9829825">
        <ele>22.7283</ele>
        <time>2014-11-23T15:00:46Z</time>
        <extensions><gpxtpx:TrackPointExtension><gpxtpx:hr>108</gpxtpx:hr></gpxtpx:TrackPointExtension></extensions>
      </trkpt>
      <trkpt lat="60.1223295" lon="19.9829576">
        <ele>23.209</ele>
        <time>2014-11-23T15:00:47Z</time>
        <extensions><gpxtpx:TrackPointExtension><gpxtpx:hr>109</gpxtpx:hr></gpxtpx:TrackPointExtension></extensions>
      </trkpt>
      <trkpt lat="60.122339" lon="19.9828135">
        <ele>25.1317</ele>
        <time>2014-11-23T15:00:54Z</time>
        <extensions><gpxtpx:TrackPointExtension><gpxtpx:hr>112</gpxtpx:hr></gpxtpx:TrackPointExtension></extensions>
      </trkpt>
      <trkpt lat="60.1223768" lon="19.9827017">
        <ele>27.0543</ele>
        <time>2014-11-23T15:01:00Z</time>
        <extensions><gpxtpx:TrackPointExtension><gpxtpx:hr>116</gpxtpx:hr></gpxtpx:TrackPointExtension></extensions>
      </trkpt>
      <trkpt lat="60.1224094" lon="19.9826649">
        <ele>27.5349</ele>
        <time>2014-11-23T15:01:03Z</time>
        <extensions><gpxtpx:TrackPointExtension><gpxtpx:hr>117</gpxtpx:hr></gpxtpx:TrackPointExtension></extensions>
      </trkpt>
      <trkpt lat="60.1224418" lon="19.9826099">
        <ele>27.0543</ele>
        <time>2014-11-23T15:01:07Z</time>
        <extensions><gpxtpx:TrackPointExtension><gpxtpx:hr>119</gpxtpx:hr></gpxtpx:TrackPointExtension></extensions>
      </trkpt>
      <trkpt lat="60.1224828" lon="19.9825126">
        <ele>26.5736</ele>
        <time>2014-11-23T15:01:13Z</time>
        <extensions><gpxtpx:TrackPointExtension><gpxtpx:hr>120</gpxtpx:hr></gpxtpx:TrackPointExtension></extensions>
      </trkpt>
      <trkpt lat="60.1225267" lon="19.9824257">
        <ele>26.0929</ele>
        <time>2014-11-23T15:01:18Z</time>
        <extensions><gpxtpx:TrackPointExtension><gpxtpx:hr>120</gpxtpx:hr></gpxtpx:TrackPointExtension></extensions>
      </trkpt>
      <trkpt lat="60.1225714" lon="19.9823199">
        <ele>27.0543</ele>
        <time>2014-11-23T15:01:25Z</time>
        <extensions><gpxtpx:TrackPointExtension><gpxtpx:hr>120</gpxtpx:hr></gpxtpx:TrackPointExtension></extensions>
      </trkpt>
      <trkpt lat="60.1225766" lon="19.9822731">
        <ele>27.0543</ele>
        <time>2014-11-23T15:01:27Z</time>
        <extensions><gpxtpx:TrackPointExtension><gpxtpx:hr>120</gpxtpx:hr></gpxtpx:TrackPointExtension></extensions>
      </trkpt>
      <trkpt lat="60.1225751" lon="19.9821184">
        <ele>27.0543</ele>
        <time>2014-11-23T15:01:32Z</time>
        <extensions><gpxtpx:TrackPointExtension><gpxtpx:hr>119</gpxtpx:hr></gpxtpx:TrackPointExtension></extensions>
      </trkpt>
      <trkpt lat="60.1225672" lon="19.9820066">
        <ele>28.0155</ele>
        <time>2014-11-23T15:01:36Z</time>
        <extensions><gpxtpx:TrackPointExtension><gpxtpx:hr>118</gpxtpx:hr></gpxtpx:TrackPointExtension></extensions>
      </trkpt>
      <trkpt lat="60.1225668" lon="19.9818419">
        <ele>28.0155</ele>
        <time>2014-11-23T15:01:42Z</time>
        <extensions><gpxtpx:TrackPointExtension><gpxtpx:hr>116</gpxtpx:hr></gpxtpx:TrackPointExtension></extensions>
      </trkpt>
      <trkpt lat="60.1225631" lon="19.9817786">
        <ele>27.5349</ele>
        <time>2014-11-23T15:01:45Z</time>
        <extensions><gpxtpx:TrackPointExtension><gpxtpx:hr>115</gpxtpx:hr></gpxtpx:TrackPointExtension></extensions>
      </trkpt>
      <trkpt lat="60.1225346" lon="19.9817034">
        <ele>26.5736</ele>
        <time>2014-11-23T15:01:50Z</time>
        <extensions><gpxtpx:TrackPointExtension><gpxtpx:hr>117</gpxtpx:hr></gpxtpx:TrackPointExtension></extensions>
      </trkpt>
      <trkpt lat="60.1224958" lon="19.9817626">
        <ele>25.6123</ele>
        <time>2014-11-23T15:01:55Z</time>
        <extensions><gpxtpx:TrackPointExtension><gpxtpx:hr>119</gpxtpx:hr></gpxtpx:TrackPointExtension></extensions>
      </trkpt>
      <trkpt lat="60.1224301" lon="19.9818049">
        <ele>24.1703</ele>
        <time>2014-11-23T15:02:00Z</time>
        <extensions><gpxtpx:TrackPointExtension><gpxtpx:hr>119</gpxtpx:hr></gpxtpx:TrackPointExtension></extensions>
      </trkpt>
      <trkpt lat="60.1224068" lon="19.9817956">
        <ele>23.209</ele>
        <time>2014-11-23T15:02:02Z</time>
        <extensions><gpxtpx:TrackPointExtension><gpxtpx:hr>119</gpxtpx:hr></gpxtpx:TrackPointExtension></extensions>
      </trkpt>
      <trkpt lat="60.1223787" lon="19.9817206">
        <ele>22.7283</ele>
        <time>2014-11-23T15:02:07Z</time>
        <extensions><gpxtpx:TrackPointExtension><gpxtpx:hr>118</gpxtpx:hr></gpxtpx:TrackPointExtension></extensions>
      </trkpt>
      <trkpt lat="60.1223731" lon="19.98167">
        <ele>22.7283</ele>
        <time>2014-11-23T15:02:09Z</time>
        <extensions><gpxtpx:TrackPointExtension><gpxtpx:hr>117</gpxtpx:hr></gpxtpx:TrackPointExtension></extensions>
      </trkpt>
      <trkpt lat="60.1223456" lon="19.9815663">
        <ele>21.2864</ele>
        <time>2014-11-23T15:02:14Z</time>
        <extensions><gpxtpx:TrackPointExtension><gpxtpx:hr>117</gpxtpx:hr></gpxtpx:TrackPointExtension></extensions>
      </trkpt>
      <trkpt lat="60.1223155" lon="19.9814615">
        <ele>19.8444</ele>
        <time>2014-11-23T15:02:19Z</time>
        <extensions><gpxtpx:TrackPointExtension><gpxtpx:hr>117</gpxtpx:hr></gpxtpx:TrackPointExtension></extensions>
      </trkpt>
      <trkpt lat="60.1223107" lon="19.9814398">
        <ele>19.8444</ele>
        <time>2014-11-23T15:02:20Z</time>
        <extensions><gpxtpx:TrackPointExtension><gpxtpx:hr>117</gpxtpx:hr></gpxtpx:TrackPointExtension></extensions>
      </trkpt>
      <trkpt lat="60.1222407" lon="19.9813305">
        <ele>20.325</ele>
        <time>2014-11-23T15:02:27Z</time>
        <extensions><gpxtpx:TrackPointExtension><gpxtpx:hr>116</gpxtpx:hr></gpxtpx:TrackPointExtension></extensions>
      </trkpt>
      <trkpt lat="60.122218" lon="19.9813077">
        <ele>19.8444</ele>
        <time>2014-11-23T15:02:29Z</time>
        <extensions><gpxtpx:TrackPointExtension><gpxtpx:hr>116</gpxtpx:hr></gpxtpx:TrackPointExtension></extensions>
      </trkpt>
      <trkpt lat="60.1221547" lon="19.9812368">
        <ele>18.8831</ele>
        <time>2014-11-23T15:02:35Z</time>
        <extensions><gpxtpx:TrackPointExtension><gpxtpx:hr>110</gpxtpx:hr></gpxtpx:TrackPointExtension></extensions>
      </trkpt>
      <trkpt lat="60.1221021" lon="19.9811271">
        <ele>19.3638</ele>
        <time>2014-11-23T15:02:42Z</time>
        <extensions><gpxtpx:TrackPointExtension><gpxtpx:hr>110</gpxtpx:hr></gpxtpx:TrackPointExtension></extensions>
      </trkpt>
      <trkpt lat="60.1220295" lon="19.9810063">
        <ele>19.3638</ele>
        <time>2014-11-23T15:02:49Z</time>
        <extensions><gpxtpx:TrackPointExtension><gpxtpx:hr>114</gpxtpx:hr></gpxtpx:TrackPointExtension></extensions>
      </trkpt>
      <trkpt lat="60.1220176" lon="19.9810061">
        <ele>19.3638</ele>
        <time>2014-11-23T15:02:50Z</time>
        <extensions><gpxtpx:TrackPointExtension><gpxtpx:hr>113</gpxtpx:hr></gpxtpx:TrackPointExtension></extensions>
      </trkpt>
      <trkpt lat="60.1219737" lon="19.9809685">
        <ele>19.8444</ele>
        <time>2014-11-23T15:02:54Z</time>
        <extensions><gpxtpx:TrackPointExtension><gpxtpx:hr>113</gpxtpx:hr></gpxtpx:TrackPointExtension></extensions>
      </trkpt>
      <trkpt lat="60.1219364" lon="19.980815">
        <ele>20.8057</ele>
        <time>2014-11-23T15:03:01Z</time>
        <extensions><gpxtpx:TrackPointExtension><gpxtpx:hr>112</gpxtpx:hr></gpxtpx:TrackPointExtension></extensions>
      </trkpt>
      <trkpt lat="60.121911" lon="19.9807157">
        <ele>20.325</ele>
        <time>2014-11-23T15:03:06Z</time>
        <extensions><gpxtpx:TrackPointExtension><gpxtpx:hr>110</gpxtpx:hr></gpxtpx:TrackPointExtension></extensions>
      </trkpt>
      <trkpt lat="60.1219062" lon="19.9806924">
        <ele>20.325</ele>
        <time>2014-11-23T15:03:07Z</time>
        <extensions><gpxtpx:TrackPointExtension><gpxtpx:hr>109</gpxtpx:hr></gpxtpx:TrackPointExtension></extensions>
      </trkpt>
      <trkpt lat="60.1218759" lon="19.9806172">
        <ele>19.8444</ele>
        <time>2014-11-23T15:03:11Z</time>
        <extensions><gpxtpx:TrackPointExtension><gpxtpx:hr>107</gpxtpx:hr></gpxtpx:TrackPointExtension></extensions>
      </trkpt>
      <trkpt lat="60.1218504" lon="19.9804401">
        <ele>19.3638</ele>
        <time>2014-11-23T15:03:18Z</time>
        <extensions><gpxtpx:TrackPointExtension><gpxtpx:hr>106</gpxtpx:hr></gpxtpx:TrackPointExtension></extensions>
      </trkpt>
      <trkpt lat="60.1218523" lon="19.980323">
        <ele>19.3638</ele>
        <time>2014-11-23T15:03:23Z</time>
        <extensions><gpxtpx:TrackPointExtension><gpxtpx:hr>107</gpxtpx:hr></gpxtpx:TrackPointExtension></extensions>
      </trkpt>
      <trkpt lat="60.1218302" lon="19.980181">
        <ele>17.9218</ele>
        <time>2014-11-23T15:03:29Z</time>
        <extensions><gpxtpx:TrackPointExtension><gpxtpx:hr>109</gpxtpx:hr></gpxtpx:TrackPointExtension></extensions>
      </trkpt>
      <trkpt lat="60.1218038" lon="19.9799899">
        <ele>16.9604</ele>
        <time>2014-11-23T15:03:37Z</time>
        <extensions><gpxtpx:TrackPointExtension><gpxtpx:hr>109</gpxtpx:hr></gpxtpx:TrackPointExtension></extensions>
      </trkpt>
      <trkpt lat="60.1218006" lon="19.9797822">
        <ele>18.4023</ele>
        <time>2014-11-23T15:03:45Z</time>
        <extensions><gpxtpx:TrackPointExtension><gpxtpx:hr>107</gpxtpx:hr></gpxtpx:TrackPointExtension></extensions>
      </trkpt>
      <trkpt lat="60.121782" lon="19.9796445">
        <ele>19.8444</ele>
        <time>2014-11-23T15:03:51Z</time>
        <extensions><gpxtpx:TrackPointExtension><gpxtpx:hr>106</gpxtpx:hr></gpxtpx:TrackPointExtension></extensions>
      </trkpt>
      <trkpt lat="60.1217664" lon="19.9794822">
        <ele>21.2864</ele>
        <time>2014-11-23T15:03:58Z</time>
        <extensions><gpxtpx:TrackPointExtension><gpxtpx:hr>109</gpxtpx:hr></gpxtpx:TrackPointExtension></extensions>
      </trkpt>
      <trkpt lat="60.1217598" lon="19.9794223">
        <ele>21.767</ele>
        <time>2014-11-23T15:04:01Z</time>
        <extensions><gpxtpx:TrackPointExtension><gpxtpx:hr>112</gpxtpx:hr></gpxtpx:TrackPointExtension></extensions>
      </trkpt>
      <trkpt lat="60.1217528" lon="19.9793347">
        <ele>23.209</ele>
        <time>2014-11-23T15:04:05Z</time>
        <extensions><gpxtpx:TrackPointExtension><gpxtpx:hr>115</gpxtpx:hr></gpxtpx:TrackPointExtension></extensions>
      </trkpt>
      <trkpt lat="60.1217327" lon="19.9792486">
        <ele>23.6896</ele>
        <time>2014-11-23T15:04:09Z</time>
        <extensions><gpxtpx:TrackPointExtension><gpxtpx:hr>116</gpxtpx:hr></gpxtpx:TrackPointExtension></extensions>
      </trkpt>
      <trkpt lat="60.12174" lon="19.9791599">
        <ele>23.6896</ele>
        <time>2014-11-23T15:04:13Z</time>
        <extensions><gpxtpx:TrackPointExtension><gpxtpx:hr>116</gpxtpx:hr></gpxtpx:TrackPointExtension></extensions>
      </trkpt>
      <trkpt lat="60.1217623" lon="19.9790944">
        <ele>23.6896</ele>
        <time>2014-11-23T15:04:16Z</time>
        <extensions><gpxtpx:TrackPointExtension><gpxtpx:hr>117</gpxtpx:hr></gpxtpx:TrackPointExtension></extensions>
      </trkpt>
      <trkpt lat="60.1218064" lon="19.9789799">
        <ele>23.6896</ele>
        <time>2014-11-23T15:04:22Z</time>
        <extensions><gpxtpx:TrackPointExtension><gpxtpx:hr>118</gpxtpx:hr></gpxtpx:TrackPointExtension></extensions>
      </trkpt>
      <trkpt lat="60.1218126" lon="19.9789409">
        <ele>23.209</ele>
        <time>2014-11-23T15:04:24Z</time>
        <extensions><gpxtpx:TrackPointExtension><gpxtpx:hr>118</gpxtpx:hr></gpxtpx:TrackPointExtension></extensions>
      </trkpt>
      <trkpt lat="60.1218009" lon="19.9787365">
        <ele>22.2476</ele>
        <time>2014-11-23T15:04:32Z</time>
        <extensions><gpxtpx:TrackPointExtension><gpxtpx:hr>115</gpxtpx:hr></gpxtpx:TrackPointExtension></extensions>
      </trkpt>
      <trkpt lat="60.1217546" lon="19.9786338">
        <ele>22.7283</ele>
        <time>2014-11-23T15:04:38Z</time>
        <extensions><gpxtpx:TrackPointExtension><gpxtpx:hr>115</gpxtpx:hr></gpxtpx:TrackPointExtension></extensions>
      </trkpt>
      <trkpt lat="60.121696" lon="19.9785623">
        <ele>22.2476</ele>
        <time>2014-11-23T15:04:43Z</time>
        <extensions><gpxtpx:TrackPointExtension><gpxtpx:hr>111</gpxtpx:hr></gpxtpx:TrackPointExtension></extensions>
      </trkpt>
      <trkpt lat="60.1216453" lon="19.9784959">
        <ele>22.2476</ele>
        <time>2014-11-23T15:04:48Z</time>
        <extensions><gpxtpx:TrackPointExtension><gpxtpx:hr>107</gpxtpx:hr></gpxtpx:TrackPointExtension></extensions>
      </trkpt>
      <trkpt lat="60.1216072" lon="19.9784714">
        <ele>22.2476</ele>
        <time>2014-11-23T15:04:51Z</time>
        <extensions><gpxtpx:TrackPointExtension><gpxtpx:hr>107</gpxtpx:hr></gpxtpx:TrackPointExtension></extensions>
      </trkpt>
      <trkpt lat="60.1215131" lon="19.978428">
        <ele>22.7283</ele>
        <time>2014-11-23T15:04:58Z</time>
        <extensions><gpxtpx:TrackPointExtension><gpxtpx:hr>106</gpxtpx:hr></gpxtpx:TrackPointExtension></extensions>
      </trkpt>
      <trkpt lat="60.1215031" lon="19.97841">
        <ele>22.7283</ele>
        <time>2014-11-23T15:04:59Z</time>
        <extensions><gpxtpx:TrackPointExtension><gpxtpx:hr>107</gpxtpx:hr></gpxtpx:TrackPointExtension></extensions>
      </trkpt>
      <trkpt lat="60.1214642" lon="19.9782514">
        <ele>23.209</ele>
        <time>2014-11-23T15:05:06Z</time>
        <extensions><gpxtpx:TrackPointExtension><gpxtpx:hr>107</gpxtpx:hr></gpxtpx:TrackPointExtension></extensions>
      </trkpt>
      <trkpt lat="60.1214392" lon="19.9781477">
        <ele>22.7283</ele>
        <time>2014-11-23T15:05:11Z</time>
        <extensions><gpxtpx:TrackPointExtension><gpxtpx:hr>104</gpxtpx:hr></gpxtpx:TrackPointExtension></extensions>
      </trkpt>
      <trkpt lat="60.121408" lon="19.9780506">
        <ele>21.767</ele>
        <time>2014-11-23T15:05:17Z</time>
        <extensions><gpxtpx:TrackPointExtension><gpxtpx:hr>101</gpxtpx:hr></gpxtpx:TrackPointExtension></extensions>
      </trkpt>
      <trkpt lat="60.1214007" lon="19.9779977">
        <ele>21.2864</ele>
        <time>2014-11-23T15:05:19Z</time>
        <extensions><gpxtpx:TrackPointExtension><gpxtpx:hr>101</gpxtpx:hr></gpxtpx:TrackPointExtension></extensions>
      </trkpt>
      <trkpt lat="60.1213567" lon="19.9778315">
        <ele>20.325</ele>
        <time>2014-11-23T15:05:27Z</time>
        <extensions><gpxtpx:TrackPointExtension><gpxtpx:hr>102</gpxtpx:hr></gpxtpx:TrackPointExtension></extensions>
      </trkpt>
      <trkpt lat="60.1213255" lon="19.977701">
        <ele>20.325</ele>
        <time>2014-11-23T15:05:33Z</time>
        <extensions><gpxtpx:TrackPointExtension><gpxtpx:hr>102</gpxtpx:hr></gpxtpx:TrackPointExtension></extensions>
      </trkpt>
      <trkpt lat="60.1213028" lon="19.9775905">
        <ele>20.325</ele>
        <time>2014-11-23T15:05:37Z</time>
        <extensions><gpxtpx:TrackPointExtension><gpxtpx:hr>103</gpxtpx:hr></gpxtpx:TrackPointExtension></extensions>
      </trkpt>
      <trkpt lat="60.1213008" lon="19.9775">
        <ele>21.2864</ele>
        <time>2014-11-23T15:05:40Z</time>
        <extensions><gpxtpx:TrackPointExtension><gpxtpx:hr>103</gpxtpx:hr></gpxtpx:TrackPointExtension></extensions>
      </trkpt>
      <trkpt lat="60.1212361" lon="19.9773904">
        <ele>22.2476</ele>
        <time>2014-11-23T15:05:47Z</time>
        <extensions><gpxtpx:TrackPointExtension><gpxtpx:hr>101</gpxtpx:hr></gpxtpx:TrackPointExtension></extensions>
      </trkpt>
      <trkpt lat="60.1211856" lon="19.9773407">
        <ele>22.7283</ele>
        <time>2014-11-23T15:05:51Z</time>
        <extensions><gpxtpx:TrackPointExtension><gpxtpx:hr>99</gpxtpx:hr></gpxtpx:TrackPointExtension></extensions>
      </trkpt>
      <trkpt lat="60.1211389" lon="19.9772056">
        <ele>21.767</ele>
        <time>2014-11-23T15:05:57Z</time>
        <extensions><gpxtpx:TrackPointExtension><gpxtpx:hr>100</gpxtpx:hr></gpxtpx:TrackPointExtension></extensions>
      </trkpt>
      <trkpt lat="60.1210903" lon="19.9770667">
        <ele>22.2476</ele>
        <time>2014-11-23T15:06:04Z</time>
        <extensions><gpxtpx:TrackPointExtension><gpxtpx:hr>102</gpxtpx:hr></gpxtpx:TrackPointExtension></extensions>
      </trkpt>
      <trkpt lat="60.1210681" lon="19.9769698">
        <ele>21.2864</ele>
        <time>2014-11-23T15:06:08Z</time>
        <extensions><gpxtpx:TrackPointExtension><gpxtpx:hr>99</gpxtpx:hr></gpxtpx:TrackPointExtension></extensions>
      </trkpt>
      <trkpt lat="60.1210472" lon="19.9769231">
        <ele>20.8057</ele>
        <time>2014-11-23T15:06:10Z</time>
        <extensions><gpxtpx:TrackPointExtension><gpxtpx:hr>97</gpxtpx:hr></gpxtpx:TrackPointExtension></extensions>
      </trkpt>
      <trkpt lat="60.121007" lon="19.976817">
        <ele>21.2864</ele>
        <time>2014-11-23T15:06:15Z</time>
        <extensions><gpxtpx:TrackPointExtension><gpxtpx:hr>99</gpxtpx:hr></gpxtpx:TrackPointExtension></extensions>
      </trkpt>
      <trkpt lat="60.1209737" lon="19.9766736">
        <ele>22.2476</ele>
        <time>2014-11-23T15:06:21Z</time>
        <extensions><gpxtpx:TrackPointExtension><gpxtpx:hr>99</gpxtpx:hr></gpxtpx:TrackPointExtension></extensions>
      </trkpt>
      <trkpt lat="60.1209664" lon="19.9766468">
        <ele>22.2476</ele>
        <time>2014-11-23T15:06:22Z</time>
        <extensions><gpxtpx:TrackPointExtension><gpxtpx:hr>99</gpxtpx:hr></gpxtpx:TrackPointExtension></extensions>
      </trkpt>
      <trkpt lat="60.1209552" lon="19.9764757">
        <ele>22.2476</ele>
        <time>2014-11-23T15:06:29Z</time>
        <extensions><gpxtpx:TrackPointExtension><gpxtpx:hr>99</gpxtpx:hr></gpxtpx:TrackPointExtension></extensions>
      </trkpt>
      <trkpt lat="60.1209662" lon="19.9763255">
        <ele>20.325</ele>
        <time>2014-11-23T15:06:34Z</time>
        <extensions><gpxtpx:TrackPointExtension><gpxtpx:hr>98</gpxtpx:hr></gpxtpx:TrackPointExtension></extensions>
      </trkpt>
      <trkpt lat="60.1209702" lon="19.9762349">
        <ele>20.325</ele>
        <time>2014-11-23T15:06:38Z</time>
        <extensions><gpxtpx:TrackPointExtension><gpxtpx:hr>100</gpxtpx:hr></gpxtpx:TrackPointExtension></extensions>
      </trkpt>
      <trkpt lat="60.1209877" lon="19.9760624">
        <ele>19.3638</ele>
        <time>2014-11-23T15:06:45Z</time>
        <extensions><gpxtpx:TrackPointExtension><gpxtpx:hr>102</gpxtpx:hr></gpxtpx:TrackPointExtension></extensions>
      </trkpt>
      <trkpt lat="60.1210209" lon="19.9759024">
        <ele>20.8057</ele>
        <time>2014-11-23T15:06:53Z</time>
        <extensions><gpxtpx:TrackPointExtension><gpxtpx:hr>102</gpxtpx:hr></gpxtpx:TrackPointExtension></extensions>
      </trkpt>
      <trkpt lat="60.1210268" lon="19.9757335">
        <ele>19.8444</ele>
        <time>2014-11-23T15:07:01Z</time>
        <extensions><gpxtpx:TrackPointExtension><gpxtpx:hr>103</gpxtpx:hr></gpxtpx:TrackPointExtension></extensions>
      </trkpt>
      <trkpt lat="60.1210282" lon="19.9755963">
        <ele>17.9218</ele>
        <time>2014-11-23T15:07:07Z</time>
        <extensions><gpxtpx:TrackPointExtension><gpxtpx:hr>98</gpxtpx:hr></gpxtpx:TrackPointExtension></extensions>
      </trkpt>
      <trkpt lat="60.1210079" lon="19.9754746">
        <ele>18.8831</ele>
        <time>2014-11-23T15:07:13Z</time>
        <extensions><gpxtpx:TrackPointExtension><gpxtpx:hr>99</gpxtpx:hr></gpxtpx:TrackPointExtension></extensions>
      </trkpt>
      <trkpt lat="60.1210023" lon="19.9754511">
        <ele>18.8831</ele>
        <time>2014-11-23T15:07:14Z</time>
        <extensions><gpxtpx:TrackPointExtension><gpxtpx:hr>100</gpxtpx:hr></gpxtpx:TrackPointExtension></extensions>
      </trkpt>
      <trkpt lat="60.1209875" lon="19.9753837">
        <ele>19.3638</ele>
        <time>2014-11-23T15:07:17Z</time>
        <extensions><gpxtpx:TrackPointExtension><gpxtpx:hr>98</gpxtpx:hr></gpxtpx:TrackPointExtension></extensions>
      </trkpt>
      <trkpt lat="60.1209587" lon="19.9752655">
        <ele>19.3638</ele>
        <time>2014-11-23T15:07:23Z</time>
        <extensions><gpxtpx:TrackPointExtension><gpxtpx:hr>100</gpxtpx:hr></gpxtpx:TrackPointExtension></extensions>
      </trkpt>
      <trkpt lat="60.1208937" lon="19.9751637">
        <ele>17.4412</ele>
        <time>2014-11-23T15:07:29Z</time>
        <extensions><gpxtpx:TrackPointExtension><gpxtpx:hr>101</gpxtpx:hr></gpxtpx:TrackPointExtension></extensions>
      </trkpt>
      <trkpt lat="60.1208868" lon="19.9751039">
        <ele>16.4797</ele>
        <time>2014-11-23T15:07:32Z</time>
        <extensions><gpxtpx:TrackPointExtension><gpxtpx:hr>100</gpxtpx:hr></gpxtpx:TrackPointExtension></extensions>
      </trkpt>
      <trkpt lat="60.1208998" lon="19.9750128">
        <ele>17.9218</ele>
        <time>2014-11-23T15:07:36Z</time>
        <extensions><gpxtpx:TrackPointExtension><gpxtpx:hr>99</gpxtpx:hr></gpxtpx:TrackPointExtension></extensions>
      </trkpt>
      <trkpt lat="60.1209252" lon="19.9748855">
        <ele>17.9218</ele>
        <time>2014-11-23T15:07:41Z</time>
        <extensions><gpxtpx:TrackPointExtension><gpxtpx:hr>98</gpxtpx:hr></gpxtpx:TrackPointExtension></extensions>
      </trkpt>
      <trkpt lat="60.1209398" lon="19.9747922">
        <ele>17.4412</ele>
        <time>2014-11-23T15:07:45Z</time>
        <extensions><gpxtpx:TrackPointExtension><gpxtpx:hr>95</gpxtpx:hr></gpxtpx:TrackPointExtension></extensions>
      </trkpt>
      <trkpt lat="60.1209392" lon="19.974729">
        <ele>16.4797</ele>
        <time>2014-11-23T15:07:47Z</time>
        <extensions><gpxtpx:TrackPointExtension><gpxtpx:hr>94</gpxtpx:hr></gpxtpx:TrackPointExtension></extensions>
      </trkpt>
      <trkpt lat="60.1209837" lon="19.9745823">
        <ele>17.4412</ele>
        <time>2014-11-23T15:07:54Z</time>
        <extensions><gpxtpx:TrackPointExtension><gpxtpx:hr>94</gpxtpx:hr></gpxtpx:TrackPointExtension></extensions>
      </trkpt>
      <trkpt lat="60.1209889" lon="19.9745679">
        <ele>17.4412</ele>
        <time>2014-11-23T15:07:55Z</time>
        <extensions><gpxtpx:TrackPointExtension><gpxtpx:hr>93</gpxtpx:hr></gpxtpx:TrackPointExtension></extensions>
      </trkpt>
      <trkpt lat="60.1209935" lon="19.9745084">
        <ele>16.9604</ele>
        <time>2014-11-23T15:07:57Z</time>
        <extensions><gpxtpx:TrackPointExtension><gpxtpx:hr>92</gpxtpx:hr></gpxtpx:TrackPointExtension></extensions>
      </trkpt>
      <trkpt lat="60.120988" lon="19.9744067">
        <ele>16.9604</ele>
        <time>2014-11-23T15:08:01Z</time>
        <extensions><gpxtpx:TrackPointExtension><gpxtpx:hr>95</gpxtpx:hr></gpxtpx:TrackPointExtension></extensions>
      </trkpt>
      <trkpt lat="60.1209778" lon="19.9743549">
        <ele>18.8831</ele>
        <time>2014-11-23T15:08:04Z</time>
        <extensions><gpxtpx:TrackPointExtension><gpxtpx:hr>94</gpxtpx:hr></gpxtpx:TrackPointExtension></extensions>
      </trkpt>
      <trkpt lat="60.1209061" lon="19.9742742">
        <ele>18.4023</ele>
        <time>2014-11-23T15:08:12Z</time>
        <extensions><gpxtpx:TrackPointExtension><gpxtpx:hr>96</gpxtpx:hr></gpxtpx:TrackPointExtension></extensions>
      </trkpt>
      <trkpt lat="60.1208476" lon="19.9741691">
        <ele>19.3638</ele>
        <time>2014-11-23T15:08:18Z</time>
        <extensions><gpxtpx:TrackPointExtension><gpxtpx:hr>99</gpxtpx:hr></gpxtpx:TrackPointExtension></extensions>
      </trkpt>
      <trkpt lat="60.1208085" lon="19.9741292">
        <ele>18.8831</ele>
        <time>2014-11-23T15:08:25Z</time>
        <extensions><gpxtpx:TrackPointExtension><gpxtpx:hr>105</gpxtpx:hr></gpxtpx:TrackPointExtension></extensions>
      </trkpt>
      <trkpt lat="60.1207734" lon="19.9741106">
        <ele>17.9218</ele>
        <time>2014-11-23T15:08:29Z</time>
        <extensions><gpxtpx:TrackPointExtension><gpxtpx:hr>110</gpxtpx:hr></gpxtpx:TrackPointExtension></extensions>
      </trkpt>
      <trkpt lat="60.120765" lon="19.9741064">
        <ele>17.4412</ele>
        <time>2014-11-23T15:08:30Z</time>
        <extensions><gpxtpx:TrackPointExtension><gpxtpx:hr>111</gpxtpx:hr></gpxtpx:TrackPointExtension></extensions>
      </trkpt>
      <trkpt lat="60.1207189" lon="19.9741266">
        <ele>15.999</ele>
        <time>2014-11-23T15:08:35Z</time>
        <extensions><gpxtpx:TrackPointExtension><gpxtpx:hr>116</gpxtpx:hr></gpxtpx:TrackPointExtension></extensions>
      </trkpt>
      <trkpt lat="60.120704" lon="19.9741306">
        <ele>14.557</ele>
        <time>2014-11-23T15:08:37Z</time>
        <extensions><gpxtpx:TrackPointExtension><gpxtpx:hr>117</gpxtpx:hr></gpxtpx:TrackPointExtension></extensions>
      </trkpt>
      <trkpt lat="60.1206823" lon="19.9741266">
        <ele>13.5958</ele>
        <time>2014-11-23T15:08:39Z</time>
        <extensions><gpxtpx:TrackPointExtension><gpxtpx:hr>118</gpxtpx:hr></gpxtpx:TrackPointExtension></extensions>
      </trkpt>
      <trkpt lat="60.1206015" lon="19.974142">
        <ele>11.6732</ele>
        <time>2014-11-23T15:08:47Z</time>
        <extensions><gpxtpx:TrackPointExtension><gpxtpx:hr>118</gpxtpx:hr></gpxtpx:TrackPointExtension></extensions>
      </trkpt>
      <trkpt lat="60.1205631" lon="19.9741117">
        <ele>12.6344</ele>
        <time>2014-11-23T15:08:51Z</time>
        <extensions><gpxtpx:TrackPointExtension><gpxtpx:hr>117</gpxtpx:hr></gpxtpx:TrackPointExtension></extensions>
      </trkpt>
      <trkpt lat="60.1205376" lon="19.9740111">
        <ele>13.5958</ele>
        <time>2014-11-23T15:08:57Z</time>
        <extensions><gpxtpx:TrackPointExtension><gpxtpx:hr>114</gpxtpx:hr></gpxtpx:TrackPointExtension></extensions>
      </trkpt>
      <trkpt lat="60.1205206" lon="19.9739221">
        <ele>13.1151</ele>
        <time>2014-11-23T15:09:01Z</time>
        <extensions><gpxtpx:TrackPointExtension><gpxtpx:hr>117</gpxtpx:hr></gpxtpx:TrackPointExtension></extensions>
      </trkpt>
      <trkpt lat="60.1204448" lon="19.9737857">
        <ele>13.5958</ele>
        <time>2014-11-23T15:09:08Z</time>
        <extensions><gpxtpx:TrackPointExtension><gpxtpx:hr>113</gpxtpx:hr></gpxtpx:TrackPointExtension></extensions>
      </trkpt>
      <trkpt lat="60.1204114" lon="19.9737339">
        <ele>13.5958</ele>
        <time>2014-11-23T15:09:11Z</time>
        <extensions><gpxtpx:TrackPointExtension><gpxtpx:hr>111</gpxtpx:hr></gpxtpx:TrackPointExtension></extensions>
      </trkpt>
      <trkpt lat="60.120364" lon="19.9736108">
        <ele>13.1151</ele>
        <time>2014-11-23T15:09:17Z</time>
        <extensions><gpxtpx:TrackPointExtension><gpxtpx:hr>112</gpxtpx:hr></gpxtpx:TrackPointExtension></extensions>
      </trkpt>
      <trkpt lat="60.1203402" lon="19.9735381">
        <ele>14.0764</ele>
        <time>2014-11-23T15:09:21Z</time>
        <extensions><gpxtpx:TrackPointExtension><gpxtpx:hr>111</gpxtpx:hr></gpxtpx:TrackPointExtension></extensions>
      </trkpt>
      <trkpt lat="60.120303" lon="19.9734848">
        <ele>14.557</ele>
        <time>2014-11-23T15:09:25Z</time>
        <extensions><gpxtpx:TrackPointExtension><gpxtpx:hr>111</gpxtpx:hr></gpxtpx:TrackPointExtension></extensions>
      </trkpt>
      <trkpt lat="60.1202737" lon="19.9734143">
        <ele>13.5958</ele>
        <time>2014-11-23T15:09:29Z</time>
        <extensions><gpxtpx:TrackPointExtension><gpxtpx:hr>110</gpxtpx:hr></gpxtpx:TrackPointExtension></extensions>
      </trkpt>
      <trkpt lat="60.1202715" lon="19.9734079">
        <ele>13.5958</ele>
        <time>2014-11-23T15:09:30Z</time>
        <extensions><gpxtpx:TrackPointExtension><gpxtpx:hr>110</gpxtpx:hr></gpxtpx:TrackPointExtension></extensions>
      </trkpt>
      <trkpt lat="60.1202321" lon="19.9733454">
        <ele>13.5958</ele>
        <time>2014-11-23T15:09:34Z</time>
        <extensions><gpxtpx:TrackPointExtension><gpxtpx:hr>110</gpxtpx:hr></gpxtpx:TrackPointExtension></extensions>
      </trkpt>
      <trkpt lat="60.1201679" lon="19.9732827">
        <ele>15.5184</ele>
        <time>2014-11-23T15:09:40Z</time>
        <extensions><gpxtpx:TrackPointExtension><gpxtpx:hr>109</gpxtpx:hr></gpxtpx:TrackPointExtension></extensions>
      </trkpt>
      <trkpt lat="60.120158" lon="19.9732756">
        <ele>15.999</ele>
        <time>2014-11-23T15:09:41Z</time>
        <extensions><gpxtpx:TrackPointExtension><gpxtpx:hr>108</gpxtpx:hr></gpxtpx:TrackPointExtension></extensions>
      </trkpt>
      <trkpt lat="60.1201074" lon="19.9731862">
        <ele>16.4797</ele>
        <time>2014-11-23T15:09:47Z</time>
        <extensions><gpxtpx:TrackPointExtension><gpxtpx:hr>103</gpxtpx:hr></gpxtpx:TrackPointExtension></extensions>
      </trkpt>
      <trkpt lat="60.1200763" lon="19.97309">
        <ele>16.9604</ele>
        <time>2014-11-23T15:09:52Z</time>
        <extensions><gpxtpx:TrackPointExtension><gpxtpx:hr>101</gpxtpx:hr></gpxtpx:TrackPointExtension></extensions>
      </trkpt>
      <trkpt lat="60.1200465" lon="19.9730371">
        <ele>17.9218</ele>
        <time>2014-11-23T15:09:57Z</time>
        <extensions><gpxtpx:TrackPointExtension><gpxtpx:hr>103</gpxtpx:hr></gpxtpx:TrackPointExtension></extensions>
      </trkpt>
      <trkpt lat="60.1200134" lon="19.9730071">
        <ele>18.8831</ele>
        <time>2014-11-23T15:10:01Z</time>
        <extensions><gpxtpx:TrackPointExtension><gpxtpx:hr>107</gpxtpx:hr></gpxtpx:TrackPointExtension></extensions>
      </trkpt>
      <trkpt lat="60.119982" lon="19.9729833">
        <ele>19.8444</ele>
        <time>2014-11-23T15:10:07Z</time>
        <extensions><gpxtpx:TrackPointExtension><gpxtpx:hr>113</gpxtpx:hr></gpxtpx:TrackPointExtension></extensions>
      </trkpt>
      <trkpt lat="60.11997" lon="19.9729694">
        <ele>19.8444</ele>
        <time>2014-11-23T15:10:08Z</time>
        <extensions><gpxtpx:TrackPointExtension><gpxtpx:hr>114</gpxtpx:hr></gpxtpx:TrackPointExtension></extensions>
      </trkpt>
      <trkpt lat="60.1199335" lon="19.9729213">
        <ele>22.2476</ele>
        <time>2014-11-23T15:10:13Z</time>
        <extensions><gpxtpx:TrackPointExtension><gpxtpx:hr>115</gpxtpx:hr></gpxtpx:TrackPointExtension></extensions>
      </trkpt>
      <trkpt lat="60.1199223" lon="19.9729044">
        <ele>22.7283</ele>
        <time>2014-11-23T15:10:15Z</time>
        <extensions><gpxtpx:TrackPointExtension><gpxtpx:hr>117</gpxtpx:hr></gpxtpx:TrackPointExtension></extensions>
      </trkpt>
      <trkpt lat="60.1199071" lon="19.9728793">
        <ele>22.7283</ele>
        <time>2014-11-23T15:10:17Z</time>
        <extensions><gpxtpx:TrackPointExtension><gpxtpx:hr>120</gpxtpx:hr></gpxtpx:TrackPointExtension></extensions>
      </trkpt>
      <trkpt lat="60.1198913" lon="19.9728739">
        <ele>22.7283</ele>
        <time>2014-11-23T15:10:19Z</time>
        <extensions><gpxtpx:TrackPointExtension><gpxtpx:hr>121</gpxtpx:hr></gpxtpx:TrackPointExtension></extensions>
      </trkpt>
      <trkpt lat="60.1198172" lon="19.9727534">
        <ele>23.209</ele>
        <time>2014-11-23T15:10:28Z</time>
        <extensions><gpxtpx:TrackPointExtension><gpxtpx:hr>126</gpxtpx:hr></gpxtpx:TrackPointExtension></extensions>
      </trkpt>
      <trkpt lat="60.1198099" lon="19.9727398">
        <ele>22.7283</ele>
        <time>2014-11-23T15:10:29Z</time>
        <extensions><gpxtpx:TrackPointExtension><gpxtpx:hr>127</gpxtpx:hr></gpxtpx:TrackPointExtension></extensions>
      </trkpt>
      <trkpt lat="60.1197491" lon="19.9726219">
        <ele>23.209</ele>
        <time>2014-11-23T15:10:36Z</time>
        <extensions><gpxtpx:TrackPointExtension><gpxtpx:hr>128</gpxtpx:hr></gpxtpx:TrackPointExtension></extensions>
      </trkpt>
      <trkpt lat="60.1197323" lon="19.9725627">
        <ele>23.209</ele>
        <time>2014-11-23T15:10:39Z</time>
        <extensions><gpxtpx:TrackPointExtension><gpxtpx:hr>127</gpxtpx:hr></gpxtpx:TrackPointExtension></extensions>
      </trkpt>
      <trkpt lat="60.1196681" lon="19.9724805">
        <ele>23.209</ele>
        <time>2014-11-23T15:10:45Z</time>
        <extensions><gpxtpx:TrackPointExtension><gpxtpx:hr>129</gpxtpx:hr></gpxtpx:TrackPointExtension></extensions>
      </trkpt>
      <trkpt lat="60.1196505" lon="19.9724627">
        <ele>23.6896</ele>
        <time>2014-11-23T15:10:47Z</time>
        <extensions><gpxtpx:TrackPointExtension><gpxtpx:hr>129</gpxtpx:hr></gpxtpx:TrackPointExtension></extensions>
      </trkpt>
      <trkpt lat="60.1196328" lon="19.9724512">
        <ele>23.6896</ele>
        <time>2014-11-23T15:10:49Z</time>
        <extensions><gpxtpx:TrackPointExtension><gpxtpx:hr>129</gpxtpx:hr></gpxtpx:TrackPointExtension></extensions>
      </trkpt>
      <trkpt lat="60.1195878" lon="19.9723844">
        <ele>24.1703</ele>
        <time>2014-11-23T15:10:55Z</time>
        <extensions><gpxtpx:TrackPointExtension><gpxtpx:hr>133</gpxtpx:hr></gpxtpx:TrackPointExtension></extensions>
      </trkpt>
      <trkpt lat="60.1195198" lon="19.9723969">
        <ele>24.1703</ele>
        <time>2014-11-23T15:11:01Z</time>
        <extensions><gpxtpx:TrackPointExtension><gpxtpx:hr>134</gpxtpx:hr></gpxtpx:TrackPointExtension></extensions>
      </trkpt>
      <trkpt lat="60.1194603" lon="19.9724195">
        <ele>24.1703</ele>
        <time>2014-11-23T15:11:06Z</time>
        <extensions><gpxtpx:TrackPointExtension><gpxtpx:hr>132</gpxtpx:hr></gpxtpx:TrackPointExtension></extensions>
      </trkpt>
      <trkpt lat="60.119394" lon="19.9723882">
        <ele>26.0929</ele>
        <time>2014-11-23T15:11:12Z</time>
        <extensions><gpxtpx:TrackPointExtension><gpxtpx:hr>130</gpxtpx:hr></gpxtpx:TrackPointExtension></extensions>
      </trkpt>
      <trkpt lat="60.1193012" lon="19.9723984">
        <ele>26.5736</ele>
        <time>2014-11-23T15:11:20Z</time>
        <extensions><gpxtpx:TrackPointExtension><gpxtpx:hr>128</gpxtpx:hr></gpxtpx:TrackPointExtension></extensions>
      </trkpt>
      <trkpt lat="60.1192485" lon="19.9724109">
        <ele>26.5736</ele>
        <time>2014-11-23T15:11:26Z</time>
        <extensions><gpxtpx:TrackPointExtension><gpxtpx:hr>124</gpxtpx:hr></gpxtpx:TrackPointExtension></extensions>
      </trkpt>
      <trkpt lat="60.1192401" lon="19.9724109">
        <ele>26.5736</ele>
        <time>2014-11-23T15:11:27Z</time>
        <extensions><gpxtpx:TrackPointExtension><gpxtpx:hr>124</gpxtpx:hr></gpxtpx:TrackPointExtension></extensions>
      </trkpt>
      <trkpt lat="60.1192071" lon="19.9723919">
        <ele>27.0543</ele>
        <time>2014-11-23T15:11:33Z</time>
        <extensions><gpxtpx:TrackPointExtension><gpxtpx:hr>120</gpxtpx:hr></gpxtpx:TrackPointExtension></extensions>
      </trkpt>
      <trkpt lat="60.119195" lon="19.9723937">
        <ele>27.5349</ele>
        <time>2014-11-23T15:11:36Z</time>
        <extensions><gpxtpx:TrackPointExtension><gpxtpx:hr>115</gpxtpx:hr></gpxtpx:TrackPointExtension></extensions>
      </trkpt>
      <trkpt lat="60.119154" lon="19.9723973">
        <ele>28.4962</ele>
        <time>2014-11-23T15:11:42Z</time>
        <extensions><gpxtpx:TrackPointExtension><gpxtpx:hr>114</gpxtpx:hr></gpxtpx:TrackPointExtension></extensions>
      </trkpt>
      <trkpt lat="60.1191131" lon="19.9724068">
        <ele>28.4962</ele>
        <time>2014-11-23T15:11:46Z</time>
        <extensions><gpxtpx:TrackPointExtension><gpxtpx:hr>116</gpxtpx:hr></gpxtpx:TrackPointExtension></extensions>
      </trkpt>
      <trkpt lat="60.1190785" lon="19.9724135">
        <ele>28.4962</ele>
        <time>2014-11-23T15:11:51Z</time>
        <extensions><gpxtpx:TrackPointExtension><gpxtpx:hr>114</gpxtpx:hr></gpxtpx:TrackPointExtension></extensions>
      </trkpt>
      <trkpt lat="60.1190423" lon="19.9724722">
        <ele>28.4962</ele>
        <time>2014-11-23T15:11:58Z</time>
        <extensions><gpxtpx:TrackPointExtension><gpxtpx:hr>114</gpxtpx:hr></gpxtpx:TrackPointExtension></extensions>
      </trkpt>
      <trkpt lat="60.1190007" lon="19.9725451">
        <ele>28.4962</ele>
        <time>2014-11-23T15:12:05Z</time>
        <extensions><gpxtpx:TrackPointExtension><gpxtpx:hr>112</gpxtpx:hr></gpxtpx:TrackPointExtension></extensions>
      </trkpt>
      <trkpt lat="60.1189744" lon="19.9725958">
        <ele>28.4962</ele>
        <time>2014-11-23T15:12:10Z</time>
        <extensions><gpxtpx:TrackPointExtension><gpxtpx:hr>111</gpxtpx:hr></gpxtpx:TrackPointExtension></extensions>
      </trkpt>
      <trkpt lat="60.1189376" lon="19.9726543">
        <ele>28.4962</ele>
        <time>2014-11-23T15:12:14Z</time>
        <extensions><gpxtpx:TrackPointExtension><gpxtpx:hr>114</gpxtpx:hr></gpxtpx:TrackPointExtension></extensions>
      </trkpt>
      <trkpt lat="60.1189255" lon="19.9726672">
        <ele>28.0155</ele>
        <time>2014-11-23T15:12:18Z</time>
        <extensions><gpxtpx:TrackPointExtension><gpxtpx:hr>117</gpxtpx:hr></gpxtpx:TrackPointExtension></extensions>
      </trkpt>
      <trkpt lat="60.1188619" lon="19.9725813">
        <ele>29.4575</ele>
        <time>2014-11-23T15:12:25Z</time>
        <extensions><gpxtpx:TrackPointExtension><gpxtpx:hr>118</gpxtpx:hr></gpxtpx:TrackPointExtension></extensions>
      </trkpt>
      <trkpt lat="60.1188157" lon="19.9725131">
        <ele>29.9381</ele>
        <time>2014-11-23T15:12:30Z</time>
        <extensions><gpxtpx:TrackPointExtension><gpxtpx:hr>113</gpxtpx:hr></gpxtpx:TrackPointExtension></extensions>
      </trkpt>
      <trkpt lat="60.1187255" lon="19.9723782">
        <ele>30.8995</ele>
        <time>2014-11-23T15:12:40Z</time>
        <extensions><gpxtpx:TrackPointExtension><gpxtpx:hr>109</gpxtpx:hr></gpxtpx:TrackPointExtension></extensions>
      </trkpt>
      <trkpt lat="60.1186319" lon="19.9723424">
        <ele>30.8995</ele>
        <time>2014-11-23T15:12:48Z</time>
        <extensions><gpxtpx:TrackPointExtension><gpxtpx:hr>106</gpxtpx:hr></gpxtpx:TrackPointExtension></extensions>
      </trkpt>
      <trkpt lat="60.1185142" lon="19.9723978">
        <ele>30.4188</ele>
        <time>2014-11-23T15:12:57Z</time>
        <extensions><gpxtpx:TrackPointExtension><gpxtpx:hr>104</gpxtpx:hr></gpxtpx:TrackPointExtension></extensions>
      </trkpt>
      <trkpt lat="60.1184481" lon="19.9724323">
        <ele>30.4188</ele>
        <time>2014-11-23T15:13:02Z</time>
        <extensions><gpxtpx:TrackPointExtension><gpxtpx:hr>98</gpxtpx:hr></gpxtpx:TrackPointExtension></extensions>
      </trkpt>
      <trkpt lat="60.1183134" lon="19.9725135">
        <ele>30.4188</ele>
        <time>2014-11-23T15:13:12Z</time>
        <extensions><gpxtpx:TrackPointExtension><gpxtpx:hr>95</gpxtpx:hr></gpxtpx:TrackPointExtension></extensions>
      </trkpt>
      <trkpt lat="60.1181719" lon="19.9725827">
        <ele>29.9381</ele>
        <time>2014-11-23T15:13:23Z</time>
        <extensions><gpxtpx:TrackPointExtension><gpxtpx:hr>98</gpxtpx:hr></gpxtpx:TrackPointExtension></extensions>
      </trkpt>
      <trkpt lat="60.1180844" lon="19.9727158">
        <ele>29.4575</ele>
        <time>2014-11-23T15:13:32Z</time>
        <extensions><gpxtpx:TrackPointExtension><gpxtpx:hr>95</gpxtpx:hr></gpxtpx:TrackPointExtension></extensions>
      </trkpt>
      <trkpt lat="60.1180814" lon="19.9728875">
        <ele>29.4575</ele>
        <time>2014-11-23T15:13:39Z</time>
        <extensions><gpxtpx:TrackPointExtension><gpxtpx:hr>96</gpxtpx:hr></gpxtpx:TrackPointExtension></extensions>
      </trkpt>
      <trkpt lat="60.1181089" lon="19.9731494">
        <ele>29.4575</ele>
        <time>2014-11-23T15:13:49Z</time>
        <extensions><gpxtpx:TrackPointExtension><gpxtpx:hr>96</gpxtpx:hr></gpxtpx:TrackPointExtension></extensions>
      </trkpt>
      <trkpt lat="60.1181277" lon="19.9733848">
        <ele>27.0543</ele>
        <time>2014-11-23T15:13:58Z</time>
        <extensions><gpxtpx:TrackPointExtension><gpxtpx:hr>100</gpxtpx:hr></gpxtpx:TrackPointExtension></extensions>
      </trkpt>
      <trkpt lat="60.1181533" lon="19.9735809">
        <ele>28.0155</ele>
        <time>2014-11-23T15:14:06Z</time>
        <extensions><gpxtpx:TrackPointExtension><gpxtpx:hr>105</gpxtpx:hr></gpxtpx:TrackPointExtension></extensions>
      </trkpt>
      <trkpt lat="60.1181084" lon="19.9737532">
        <ele>28.0155</ele>
        <time>2014-11-23T15:14:14Z</time>
        <extensions><gpxtpx:TrackPointExtension><gpxtpx:hr>104</gpxtpx:hr></gpxtpx:TrackPointExtension></extensions>
      </trkpt>
      <trkpt lat="60.1179953" lon="19.9738521">
        <ele>28.0155</ele>
        <time>2014-11-23T15:14:24Z</time>
        <extensions><gpxtpx:TrackPointExtension><gpxtpx:hr>105</gpxtpx:hr></gpxtpx:TrackPointExtension></extensions>
      </trkpt>
      <trkpt lat="60.1178545" lon="19.9739425">
        <ele>28.9769</ele>
        <time>2014-11-23T15:14:35Z</time>
        <extensions><gpxtpx:TrackPointExtension><gpxtpx:hr>102</gpxtpx:hr></gpxtpx:TrackPointExtension></extensions>
      </trkpt>
      <trkpt lat="60.1177289" lon="19.9740596">
        <ele>28.9769</ele>
        <time>2014-11-23T15:14:45Z</time>
        <extensions><gpxtpx:TrackPointExtension><gpxtpx:hr>99</gpxtpx:hr></gpxtpx:TrackPointExtension></extensions>
      </trkpt>
      <trkpt lat="60.1176068" lon="19.9741695">
        <ele>28.9769</ele>
        <time>2014-11-23T15:14:55Z</time>
        <extensions><gpxtpx:TrackPointExtension><gpxtpx:hr>100</gpxtpx:hr></gpxtpx:TrackPointExtension></extensions>
      </trkpt>
      <trkpt lat="60.1174811" lon="19.9742628">
        <ele>28.0155</ele>
        <time>2014-11-23T15:15:05Z</time>
        <extensions><gpxtpx:TrackPointExtension><gpxtpx:hr>101</gpxtpx:hr></gpxtpx:TrackPointExtension></extensions>
      </trkpt>
      <trkpt lat="60.1173401" lon="19.9743498">
        <ele>28.4962</ele>
        <time>2014-11-23T15:15:16Z</time>
        <extensions><gpxtpx:TrackPointExtension><gpxtpx:hr>96</gpxtpx:hr></gpxtpx:TrackPointExtension></extensions>
      </trkpt>
      <trkpt lat="60.1172271" lon="19.9744014">
        <ele>28.4962</ele>
        <time>2014-11-23T15:15:25Z</time>
        <extensions><gpxtpx:TrackPointExtension><gpxtpx:hr>95</gpxtpx:hr></gpxtpx:TrackPointExtension></extensions>
      </trkpt>
      <trkpt lat="60.1171685" lon="19.9743001">
        <ele>28.9769</ele>
        <time>2014-11-23T15:15:31Z</time>
        <extensions><gpxtpx:TrackPointExtension><gpxtpx:hr>92</gpxtpx:hr></gpxtpx:TrackPointExtension></extensions>
      </trkpt>
      <trkpt lat="60.1171306" lon="19.9740265">
        <ele>28.4962</ele>
        <time>2014-11-23T15:15:42Z</time>
        <extensions><gpxtpx:TrackPointExtension><gpxtpx:hr>91</gpxtpx:hr></gpxtpx:TrackPointExtension></extensions>
      </trkpt>
      <trkpt lat="60.1171354" lon="19.9738121">
        <ele>28.4962</ele>
        <time>2014-11-23T15:15:50Z</time>
        <extensions><gpxtpx:TrackPointExtension><gpxtpx:hr>89</gpxtpx:hr></gpxtpx:TrackPointExtension></extensions>
      </trkpt>
      <trkpt lat="60.1171743" lon="19.9735752">
        <ele>28.9769</ele>
        <time>2014-11-23T15:15:59Z</time>
        <extensions><gpxtpx:TrackPointExtension><gpxtpx:hr>89</gpxtpx:hr></gpxtpx:TrackPointExtension></extensions>
      </trkpt>
      <trkpt lat="60.1172078" lon="19.9733646">
        <ele>27.0543</ele>
        <time>2014-11-23T15:16:08Z</time>
        <extensions><gpxtpx:TrackPointExtension><gpxtpx:hr>87</gpxtpx:hr></gpxtpx:TrackPointExtension></extensions>
      </trkpt>
      <trkpt lat="60.1172049" lon="19.973163">
        <ele>27.0543</ele>
        <time>2014-11-23T15:16:17Z</time>
        <extensions><gpxtpx:TrackPointExtension><gpxtpx:hr>87</gpxtpx:hr></gpxtpx:TrackPointExtension></extensions>
      </trkpt>
      <trkpt lat="60.1172033" lon="19.9731563">
        <ele>26.5736</ele>
        <time>2014-11-23T15:16:18Z</time>
        <extensions><gpxtpx:TrackPointExtension><gpxtpx:hr>89</gpxtpx:hr></gpxtpx:TrackPointExtension></extensions>
      </trkpt>
      <trkpt lat="60.1171505" lon="19.9730458">
        <ele>27.0543</ele>
        <time>2014-11-23T15:16:25Z</time>
        <extensions><gpxtpx:TrackPointExtension><gpxtpx:hr>89</gpxtpx:hr></gpxtpx:TrackPointExtension></extensions>
      </trkpt>
      <trkpt lat="60.1170224" lon="19.972912">
        <ele>27.0543</ele>
        <time>2014-11-23T15:16:37Z</time>
        <extensions><gpxtpx:TrackPointExtension><gpxtpx:hr>93</gpxtpx:hr></gpxtpx:TrackPointExtension></extensions>
      </trkpt>
      <trkpt lat="60.1169836" lon="19.9729063">
        <ele>26.5736</ele>
        <time>2014-11-23T15:16:40Z</time>
        <extensions><gpxtpx:TrackPointExtension><gpxtpx:hr>92</gpxtpx:hr></gpxtpx:TrackPointExtension></extensions>
      </trkpt>
      <trkpt lat="60.1168719" lon="19.9729291">
        <ele>26.5736</ele>
        <time>2014-11-23T15:16:49Z</time>
        <extensions><gpxtpx:TrackPointExtension><gpxtpx:hr>95</gpxtpx:hr></gpxtpx:TrackPointExtension></extensions>
      </trkpt>
      <trkpt lat="60.1167458" lon="19.9729668">
        <ele>26.0929</ele>
        <time>2014-11-23T15:16:59Z</time>
        <extensions><gpxtpx:TrackPointExtension><gpxtpx:hr>95</gpxtpx:hr></gpxtpx:TrackPointExtension></extensions>
      </trkpt>
      <trkpt lat="60.1166117" lon="19.9730217">
        <ele>25.1317</ele>
        <time>2014-11-23T15:17:10Z</time>
        <extensions><gpxtpx:TrackPointExtension><gpxtpx:hr>97</gpxtpx:hr></gpxtpx:TrackPointExtension></extensions>
      </trkpt>
      <trkpt lat="60.1164848" lon="19.9730795">
        <ele>25.1317</ele>
        <time>2014-11-23T15:17:20Z</time>
        <extensions><gpxtpx:TrackPointExtension><gpxtpx:hr>93</gpxtpx:hr></gpxtpx:TrackPointExtension></extensions>
      </trkpt>
      <trkpt lat="60.1163806" lon="19.9731464">
        <ele>24.1703</ele>
        <time>2014-11-23T15:17:29Z</time>
        <extensions><gpxtpx:TrackPointExtension><gpxtpx:hr>91</gpxtpx:hr></gpxtpx:TrackPointExtension></extensions>
      </trkpt>
      <trkpt lat="60.1162767" lon="19.9732107">
        <ele>23.209</ele>
        <time>2014-11-23T15:17:38Z</time>
        <extensions><gpxtpx:TrackPointExtension><gpxtpx:hr>90</gpxtpx:hr></gpxtpx:TrackPointExtension></extensions>
      </trkpt>
      <trkpt lat="60.1162035" lon="19.9733139">
        <ele>22.2476</ele>
        <time>2014-11-23T15:17:46Z</time>
        <extensions><gpxtpx:TrackPointExtension><gpxtpx:hr>92</gpxtpx:hr></gpxtpx:TrackPointExtension></extensions>
      </trkpt>
      <trkpt lat="60.1161486" lon="19.9735436">
        <ele>22.2476</ele>
        <time>2014-11-23T15:17:56Z</time>
        <extensions><gpxtpx:TrackPointExtension><gpxtpx:hr>94</gpxtpx:hr></gpxtpx:TrackPointExtension></extensions>
      </trkpt>
      <trkpt lat="60.1161237" lon="19.9737521">
        <ele>23.6896</ele>
        <time>2014-11-23T15:18:04Z</time>
        <extensions><gpxtpx:TrackPointExtension><gpxtpx:hr>95</gpxtpx:hr></gpxtpx:TrackPointExtension></extensions>
      </trkpt>
      <trkpt lat="60.116101" lon="19.9740219">
        <ele>24.1703</ele>
        <time>2014-11-23T15:18:14Z</time>
        <extensions><gpxtpx:TrackPointExtension><gpxtpx:hr>95</gpxtpx:hr></gpxtpx:TrackPointExtension></extensions>
      </trkpt>
      <trkpt lat="60.1160321" lon="19.9742933">
        <ele>24.1703</ele>
        <time>2014-11-23T15:18:26Z</time>
        <extensions><gpxtpx:TrackPointExtension><gpxtpx:hr>90</gpxtpx:hr></gpxtpx:TrackPointExtension></extensions>
      </trkpt>
      <trkpt lat="60.1159852" lon="19.9743857">
        <ele>24.651</ele>
        <time>2014-11-23T15:18:31Z</time>
        <extensions><gpxtpx:TrackPointExtension><gpxtpx:hr>96</gpxtpx:hr></gpxtpx:TrackPointExtension></extensions>
      </trkpt>
      <trkpt lat="60.1159103" lon="19.9745167">
        <ele>25.6123</ele>
        <time>2014-11-23T15:18:39Z</time>
        <extensions><gpxtpx:TrackPointExtension><gpxtpx:hr>93</gpxtpx:hr></gpxtpx:TrackPointExtension></extensions>
      </trkpt>
      <trkpt lat="60.1158807" lon="19.9746252">
        <ele>25.6123</ele>
        <time>2014-11-23T15:18:45Z</time>
        <extensions><gpxtpx:TrackPointExtension><gpxtpx:hr>95</gpxtpx:hr></gpxtpx:TrackPointExtension></extensions>
      </trkpt>
      <trkpt lat="60.1158616" lon="19.9746776">
        <ele>26.0929</ele>
        <time>2014-11-23T15:18:50Z</time>
        <extensions><gpxtpx:TrackPointExtension><gpxtpx:hr>91</gpxtpx:hr></gpxtpx:TrackPointExtension></extensions>
      </trkpt>
      <trkpt lat="60.1158174" lon="19.9747429">
        <ele>25.1317</ele>
        <time>2014-11-23T15:18:54Z</time>
        <extensions><gpxtpx:TrackPointExtension><gpxtpx:hr>97</gpxtpx:hr></gpxtpx:TrackPointExtension></extensions>
      </trkpt>
      <trkpt lat="60.1157985" lon="19.9747766">
        <ele>25.1317</ele>
        <time>2014-11-23T15:18:56Z</time>
        <extensions><gpxtpx:TrackPointExtension><gpxtpx:hr>100</gpxtpx:hr></gpxtpx:TrackPointExtension></extensions>
      </trkpt>
      <trkpt lat="60.115749" lon="19.9748741">
        <ele>25.1317</ele>
        <time>2014-11-23T15:19:02Z</time>
        <extensions><gpxtpx:TrackPointExtension><gpxtpx:hr>95</gpxtpx:hr></gpxtpx:TrackPointExtension></extensions>
      </trkpt>
      <trkpt lat="60.1156967" lon="19.9750729">
        <ele>24.651</ele>
        <time>2014-11-23T15:19:12Z</time>
        <extensions><gpxtpx:TrackPointExtension><gpxtpx:hr>92</gpxtpx:hr></gpxtpx:TrackPointExtension></extensions>
      </trkpt>
      <trkpt lat="60.1156631" lon="19.9752214">
        <ele>27.0543</ele>
        <time>2014-11-23T15:19:27Z</time>
        <extensions><gpxtpx:TrackPointExtension><gpxtpx:hr>95</gpxtpx:hr></gpxtpx:TrackPointExtension></extensions>
      </trkpt>
      <trkpt lat="60.1156052" lon="19.9753592">
        <ele>27.0543</ele>
        <time>2014-11-23T15:19:34Z</time>
        <extensions><gpxtpx:TrackPointExtension><gpxtpx:hr>93</gpxtpx:hr></gpxtpx:TrackPointExtension></extensions>
      </trkpt>
      <trkpt lat="60.1154781" lon="19.9753566">
        <ele>26.5736</ele>
        <time>2014-11-23T15:19:44Z</time>
        <extensions><gpxtpx:TrackPointExtension><gpxtpx:hr>93</gpxtpx:hr></gpxtpx:TrackPointExtension></extensions>
      </trkpt>
      <trkpt lat="60.1153759" lon="19.9753915">
        <ele>26.0929</ele>
        <time>2014-11-23T15:19:52Z</time>
        <extensions><gpxtpx:TrackPointExtension><gpxtpx:hr>90</gpxtpx:hr></gpxtpx:TrackPointExtension></extensions>
      </trkpt>
      <trkpt lat="60.1152757" lon="19.9754827">
        <ele>25.1317</ele>
        <time>2014-11-23T15:20:01Z</time>
        <extensions><gpxtpx:TrackPointExtension><gpxtpx:hr>88</gpxtpx:hr></gpxtpx:TrackPointExtension></extensions>
      </trkpt>
      <trkpt lat="60.1151717" lon="19.9756084">
        <ele>24.1703</ele>
        <time>2014-11-23T15:20:11Z</time>
        <extensions><gpxtpx:TrackPointExtension><gpxtpx:hr>88</gpxtpx:hr></gpxtpx:TrackPointExtension></extensions>
      </trkpt>
      <trkpt lat="60.1150479" lon="19.9757815">
        <ele>23.6896</ele>
        <time>2014-11-23T15:20:23Z</time>
        <extensions><gpxtpx:TrackPointExtension><gpxtpx:hr>88</gpxtpx:hr></gpxtpx:TrackPointExtension></extensions>
      </trkpt>
      <trkpt lat="60.1149373" lon="19.9759447">
        <ele>23.209</ele>
        <time>2014-11-23T15:20:34Z</time>
        <extensions><gpxtpx:TrackPointExtension><gpxtpx:hr>88</gpxtpx:hr></gpxtpx:TrackPointExtension></extensions>
      </trkpt>
      <trkpt lat="60.1148469" lon="19.9761178">
        <ele>22.2476</ele>
        <time>2014-11-23T15:20:44Z</time>
        <extensions><gpxtpx:TrackPointExtension><gpxtpx:hr>91</gpxtpx:hr></gpxtpx:TrackPointExtension></extensions>
      </trkpt>
      <trkpt lat="60.1147913" lon="19.9763137">
        <ele>22.7283</ele>
        <time>2014-11-23T15:20:52Z</time>
        <extensions><gpxtpx:TrackPointExtension><gpxtpx:hr>90</gpxtpx:hr></gpxtpx:TrackPointExtension></extensions>
      </trkpt>
      <trkpt lat="60.1147525" lon="19.9766033">
        <ele>23.6896</ele>
        <time>2014-11-23T15:21:02Z</time>
        <extensions><gpxtpx:TrackPointExtension><gpxtpx:hr>90</gpxtpx:hr></gpxtpx:TrackPointExtension></extensions>
      </trkpt>
      <trkpt lat="60.1147255" lon="19.9768933">
        <ele>23.209</ele>
        <time>2014-11-23T15:21:13Z</time>
        <extensions><gpxtpx:TrackPointExtension><gpxtpx:hr>92</gpxtpx:hr></gpxtpx:TrackPointExtension></extensions>
      </trkpt>
      <trkpt lat="60.114708" lon="19.977108">
        <ele>23.209</ele>
        <time>2014-11-23T15:21:21Z</time>
        <extensions><gpxtpx:TrackPointExtension><gpxtpx:hr>90</gpxtpx:hr></gpxtpx:TrackPointExtension></extensions>
      </trkpt>
      <trkpt lat="60.1146845" lon="19.9772301">
        <ele>23.209</ele>
        <time>2014-11-23T15:21:26Z</time>
        <extensions><gpxtpx:TrackPointExtension><gpxtpx:hr>92</gpxtpx:hr></gpxtpx:TrackPointExtension></extensions>
      </trkpt>
      <trkpt lat="60.1145579" lon="19.9772534">
        <ele>21.767</ele>
        <time>2014-11-23T15:21:36Z</time>
        <extensions><gpxtpx:TrackPointExtension><gpxtpx:hr>91</gpxtpx:hr></gpxtpx:TrackPointExtension></extensions>
      </trkpt>
      <trkpt lat="60.1144173" lon="19.9772106">
        <ele>20.8057</ele>
        <time>2014-11-23T15:21:47Z</time>
        <extensions><gpxtpx:TrackPointExtension><gpxtpx:hr>93</gpxtpx:hr></gpxtpx:TrackPointExtension></extensions>
      </trkpt>
      <trkpt lat="60.1143589" lon="19.9771622">
        <ele>20.325</ele>
        <time>2014-11-23T15:21:52Z</time>
        <extensions><gpxtpx:TrackPointExtension><gpxtpx:hr>88</gpxtpx:hr></gpxtpx:TrackPointExtension></extensions>
      </trkpt>
      <trkpt lat="60.1142465" lon="19.9770263">
        <ele>19.8444</ele>
        <time>2014-11-23T15:22:02Z</time>
        <extensions><gpxtpx:TrackPointExtension><gpxtpx:hr>87</gpxtpx:hr></gpxtpx:TrackPointExtension></extensions>
      </trkpt>
      <trkpt lat="60.1142351" lon="19.9770236">
        <ele>19.8444</ele>
        <time>2014-11-23T15:22:03Z</time>
        <extensions><gpxtpx:TrackPointExtension><gpxtpx:hr>87</gpxtpx:hr></gpxtpx:TrackPointExtension></extensions>
      </trkpt>
      <trkpt lat="60.114153" lon="19.9771584">
        <ele>19.3638</ele>
        <time>2014-11-23T15:22:13Z</time>
        <extensions><gpxtpx:TrackPointExtension><gpxtpx:hr>86</gpxtpx:hr></gpxtpx:TrackPointExtension></extensions>
      </trkpt>
      <trkpt lat="60.1140937" lon="19.9773081">
        <ele>19.3638</ele>
        <time>2014-11-23T15:22:21Z</time>
        <extensions><gpxtpx:TrackPointExtension><gpxtpx:hr>88</gpxtpx:hr></gpxtpx:TrackPointExtension></extensions>
      </trkpt>
      <trkpt lat="60.1140694" lon="19.977389">
        <ele>18.4023</ele>
        <time>2014-11-23T15:22:25Z</time>
        <extensions><gpxtpx:TrackPointExtension><gpxtpx:hr>90</gpxtpx:hr></gpxtpx:TrackPointExtension></extensions>
      </trkpt>
      <trkpt lat="60.113989" lon="19.9774568">
        <ele>18.4023</ele>
        <time>2014-11-23T15:22:32Z</time>
        <extensions><gpxtpx:TrackPointExtension><gpxtpx:hr>89</gpxtpx:hr></gpxtpx:TrackPointExtension></extensions>
      </trkpt>
      <trkpt lat="60.1139631" lon="19.9775111">
        <ele>18.4023</ele>
        <time>2014-11-23T15:22:35Z</time>
        <extensions><gpxtpx:TrackPointExtension><gpxtpx:hr>90</gpxtpx:hr></gpxtpx:TrackPointExtension></extensions>
      </trkpt>
      <trkpt lat="60.1138972" lon="19.9774603">
        <ele>19.3638</ele>
        <time>2014-11-23T15:22:42Z</time>
        <extensions><gpxtpx:TrackPointExtension><gpxtpx:hr>88</gpxtpx:hr></gpxtpx:TrackPointExtension></extensions>
      </trkpt>
      <trkpt lat="60.1138677" lon="19.9774485">
        <ele>19.3638</ele>
        <time>2014-11-23T15:22:50Z</time>
        <extensions><gpxtpx:TrackPointExtension><gpxtpx:hr>91</gpxtpx:hr></gpxtpx:TrackPointExtension></extensions>
      </trkpt>
      <trkpt lat="60.1138678" lon="19.9774481">
        <ele>19.8444</ele>
        <time>2014-11-23T15:22:51Z</time>
        <extensions><gpxtpx:TrackPointExtension><gpxtpx:hr>92</gpxtpx:hr></gpxtpx:TrackPointExtension></extensions>
      </trkpt>
    </trkseg>
  </trk>
</gpx>